<?xml version="1.0" encoding="UTF-8" standalone="no" ?>
<gpx xmlns="http://www.topografix.com/GPX/1/1" xmlns:xsi="http://www.w3.org/2001/XMLSchema-instance" xsi:schemaLocation="http://www.topografix.com/GPX/1/1 http://www.topografix.com/GPX/1/1/gpx.xsd" version="1.1" creator="VisuGPX - https://www.visugpx.com">
  <metadata>
    <name>2021-06-01 12:18:55</name>
  </metadata>
  <trk>
    <name><![CDATA[2021-06-01 12:18:55]]></name>
    <trkseg>
      <trkpt lat="47.55406" lon="4.30939">
        <ele>155.39</ele>
        <time>2021-06-01T07:09:14Z</time>
      </trkpt>
      <trkpt lat="47.55406" lon="4.30941">
        <ele>155.39</ele>
        <time>2021-06-01T07:09:37Z</time>
      </trkpt>
      <trkpt lat="47.55404" lon="4.30945">
        <ele>167.89</ele>
        <time>2021-06-01T07:10:03Z</time>
      </trkpt>
      <trkpt lat="47.55401" lon="4.30948">
        <ele>185.19</ele>
        <time>2021-06-01T07:10:23Z</time>
      </trkpt>
      <trkpt lat="47.55405" lon="4.30951">
        <ele>193.84</ele>
        <time>2021-06-01T07:10:35Z</time>
      </trkpt>
      <trkpt lat="47.55396" lon="4.3091">
        <ele>243.35</ele>
        <time>2021-06-01T07:10:55Z</time>
      </trkpt>
      <trkpt lat="47.55395" lon="4.30905">
        <ele>249.6</ele>
        <time>2021-06-01T07:11:17Z</time>
      </trkpt>
      <trkpt lat="47.55393" lon="4.309">
        <ele>251.52</ele>
        <time>2021-06-01T07:11:30Z</time>
      </trkpt>
      <trkpt lat="47.55393" lon="4.30898">
        <ele>252</ele>
        <time>2021-06-01T07:11:46Z</time>
      </trkpt>
      <trkpt lat="47.55415" lon="4.30889">
        <ele>257.77</ele>
        <time>2021-06-01T07:11:54Z</time>
      </trkpt>
      <trkpt lat="47.55424" lon="4.30895">
        <ele>257.29</ele>
        <time>2021-06-01T07:12:01Z</time>
      </trkpt>
      <trkpt lat="47.55424" lon="4.30867">
        <ele>257.77</ele>
        <time>2021-06-01T07:12:13Z</time>
      </trkpt>
      <trkpt lat="47.55423" lon="4.30807">
        <ele>257.29</ele>
        <time>2021-06-01T07:12:28Z</time>
      </trkpt>
      <trkpt lat="47.55452" lon="4.30767">
        <ele>258.73</ele>
        <time>2021-06-01T07:12:43Z</time>
      </trkpt>
      <trkpt lat="47.55471" lon="4.30732">
        <ele>260.17</ele>
        <time>2021-06-01T07:13:00Z</time>
      </trkpt>
      <trkpt lat="47.55489" lon="4.30717">
        <ele>261.62</ele>
        <time>2021-06-01T07:13:15Z</time>
      </trkpt>
      <trkpt lat="47.55508" lon="4.30702">
        <ele>262.1</ele>
        <time>2021-06-01T07:13:32Z</time>
      </trkpt>
      <trkpt lat="47.5553" lon="4.30689">
        <ele>263.06</ele>
        <time>2021-06-01T07:13:51Z</time>
      </trkpt>
      <trkpt lat="47.55552" lon="4.30673">
        <ele>264.5</ele>
        <time>2021-06-01T07:14:11Z</time>
      </trkpt>
      <trkpt lat="47.55572" lon="4.30658">
        <ele>266.9</ele>
        <time>2021-06-01T07:14:30Z</time>
      </trkpt>
      <trkpt lat="47.55593" lon="4.30641">
        <ele>270.27</ele>
        <time>2021-06-01T07:14:51Z</time>
      </trkpt>
      <trkpt lat="47.5561" lon="4.30628">
        <ele>274.11</ele>
        <time>2021-06-01T07:15:08Z</time>
      </trkpt>
      <trkpt lat="47.55628" lon="4.30614">
        <ele>275.56</ele>
        <time>2021-06-01T07:15:24Z</time>
      </trkpt>
      <trkpt lat="47.55647" lon="4.30611">
        <ele>276.52</ele>
        <time>2021-06-01T07:15:42Z</time>
      </trkpt>
      <trkpt lat="47.55667" lon="4.30604">
        <ele>278.92</ele>
        <time>2021-06-01T07:16:00Z</time>
      </trkpt>
      <trkpt lat="47.55686" lon="4.30598">
        <ele>281.32</ele>
        <time>2021-06-01T07:16:18Z</time>
      </trkpt>
      <trkpt lat="47.55702" lon="4.30593">
        <ele>283.73</ele>
        <time>2021-06-01T07:16:33Z</time>
      </trkpt>
      <trkpt lat="47.55708" lon="4.30592">
        <ele>284.69</ele>
        <time>2021-06-01T07:16:39Z</time>
      </trkpt>
      <trkpt lat="47.55724" lon="4.30583">
        <ele>287.57</ele>
        <time>2021-06-01T07:16:56Z</time>
      </trkpt>
      <trkpt lat="47.55741" lon="4.3057">
        <ele>292.38</ele>
        <time>2021-06-01T07:17:15Z</time>
      </trkpt>
      <trkpt lat="47.55755" lon="4.30559">
        <ele>296.22</ele>
        <time>2021-06-01T07:17:30Z</time>
      </trkpt>
      <trkpt lat="47.55769" lon="4.30547">
        <ele>298.63</ele>
        <time>2021-06-01T07:17:45Z</time>
      </trkpt>
      <trkpt lat="47.55782" lon="4.30536">
        <ele>301.03</ele>
        <time>2021-06-01T07:18:00Z</time>
      </trkpt>
      <trkpt lat="47.55799" lon="4.30521">
        <ele>305.84</ele>
        <time>2021-06-01T07:18:19Z</time>
      </trkpt>
      <trkpt lat="47.55811" lon="4.3051">
        <ele>309.2</ele>
        <time>2021-06-01T07:18:33Z</time>
      </trkpt>
      <trkpt lat="47.55815" lon="4.30507">
        <ele>310.16</ele>
        <time>2021-06-01T07:18:37Z</time>
      </trkpt>
      <trkpt lat="47.55827" lon="4.30498">
        <ele>312.57</ele>
        <time>2021-06-01T07:18:50Z</time>
      </trkpt>
      <trkpt lat="47.55844" lon="4.30486">
        <ele>318.33</ele>
        <time>2021-06-01T07:19:08Z</time>
      </trkpt>
      <trkpt lat="47.55859" lon="4.30476">
        <ele>322.66</ele>
        <time>2021-06-01T07:19:24Z</time>
      </trkpt>
      <trkpt lat="47.55873" lon="4.30468">
        <ele>326.5</ele>
        <time>2021-06-01T07:19:38Z</time>
      </trkpt>
      <trkpt lat="47.55891" lon="4.30454">
        <ele>331.79</ele>
        <time>2021-06-01T07:19:57Z</time>
      </trkpt>
      <trkpt lat="47.55907" lon="4.30446">
        <ele>332.75</ele>
        <time>2021-06-01T07:20:12Z</time>
      </trkpt>
      <trkpt lat="47.55923" lon="4.30437">
        <ele>334.2</ele>
        <time>2021-06-01T07:20:28Z</time>
      </trkpt>
      <trkpt lat="47.55942" lon="4.30433">
        <ele>336.6</ele>
        <time>2021-06-01T07:20:45Z</time>
      </trkpt>
      <trkpt lat="47.55958" lon="4.30437">
        <ele>339.96</ele>
        <time>2021-06-01T07:20:59Z</time>
      </trkpt>
      <trkpt lat="47.55977" lon="4.30443">
        <ele>343.81</ele>
        <time>2021-06-01T07:21:17Z</time>
      </trkpt>
      <trkpt lat="47.55995" lon="4.30459">
        <ele>349.58</ele>
        <time>2021-06-01T07:21:36Z</time>
      </trkpt>
      <trkpt lat="47.5601" lon="4.30479">
        <ele>352.94</ele>
        <time>2021-06-01T07:21:52Z</time>
      </trkpt>
      <trkpt lat="47.56023" lon="4.30498">
        <ele>357.27</ele>
        <time>2021-06-01T07:22:06Z</time>
      </trkpt>
      <trkpt lat="47.5604" lon="4.30525">
        <ele>361.59</ele>
        <time>2021-06-01T07:22:21Z</time>
      </trkpt>
      <trkpt lat="47.56056" lon="4.30551">
        <ele>360.63</ele>
        <time>2021-06-01T07:22:35Z</time>
      </trkpt>
      <trkpt lat="47.5607" lon="4.30576">
        <ele>361.11</ele>
        <time>2021-06-01T07:22:49Z</time>
      </trkpt>
      <trkpt lat="47.56087" lon="4.30604">
        <ele>362.07</ele>
        <time>2021-06-01T07:23:03Z</time>
      </trkpt>
      <trkpt lat="47.56104" lon="4.30632">
        <ele>364</ele>
        <time>2021-06-01T07:23:18Z</time>
      </trkpt>
      <trkpt lat="47.56118" lon="4.30662">
        <ele>369.76</ele>
        <time>2021-06-01T07:23:34Z</time>
      </trkpt>
      <trkpt lat="47.56135" lon="4.30692">
        <ele>370.73</ele>
        <time>2021-06-01T07:23:49Z</time>
      </trkpt>
      <trkpt lat="47.56143" lon="4.30699">
        <ele>369.76</ele>
        <time>2021-06-01T07:23:54Z</time>
      </trkpt>
      <trkpt lat="47.56145" lon="4.30701">
        <ele>370.24</ele>
        <time>2021-06-01T07:23:55Z</time>
      </trkpt>
      <trkpt lat="47.56147" lon="4.30702">
        <ele>369.76</ele>
        <time>2021-06-01T07:23:56Z</time>
      </trkpt>
      <trkpt lat="47.56149" lon="4.30703">
        <ele>369.76</ele>
        <time>2021-06-01T07:23:57Z</time>
      </trkpt>
      <trkpt lat="47.56182" lon="4.30715">
        <ele>368.8</ele>
        <time>2021-06-01T07:24:14Z</time>
      </trkpt>
      <trkpt lat="47.56218" lon="4.30749">
        <ele>365.92</ele>
        <time>2021-06-01T07:24:32Z</time>
      </trkpt>
      <trkpt lat="47.56253" lon="4.30778">
        <ele>364.48</ele>
        <time>2021-06-01T07:24:49Z</time>
      </trkpt>
      <trkpt lat="47.56281" lon="4.30796">
        <ele>363.52</ele>
        <time>2021-06-01T07:25:04Z</time>
      </trkpt>
      <trkpt lat="47.56316" lon="4.30821">
        <ele>369.76</ele>
        <time>2021-06-01T07:25:21Z</time>
      </trkpt>
      <trkpt lat="47.5635" lon="4.30846">
        <ele>368.32</ele>
        <time>2021-06-01T07:25:37Z</time>
      </trkpt>
      <trkpt lat="47.56394" lon="4.30882">
        <ele>372.17</ele>
        <time>2021-06-01T07:25:57Z</time>
      </trkpt>
      <trkpt lat="47.56421" lon="4.30899">
        <ele>372.17</ele>
        <time>2021-06-01T07:26:10Z</time>
      </trkpt>
      <trkpt lat="47.56455" lon="4.30923">
        <ele>376.97</ele>
        <time>2021-06-01T07:26:23Z</time>
      </trkpt>
      <trkpt lat="47.5649" lon="4.30952">
        <ele>380.82</ele>
        <time>2021-06-01T07:26:36Z</time>
      </trkpt>
      <trkpt lat="47.56523" lon="4.30974">
        <ele>384.66</ele>
        <time>2021-06-01T07:26:49Z</time>
      </trkpt>
      <trkpt lat="47.56549" lon="4.30991">
        <ele>387.07</ele>
        <time>2021-06-01T07:27:01Z</time>
      </trkpt>
      <trkpt lat="47.56575" lon="4.31015">
        <ele>386.59</ele>
        <time>2021-06-01T07:27:14Z</time>
      </trkpt>
      <trkpt lat="47.56605" lon="4.31041">
        <ele>390.91</ele>
        <time>2021-06-01T07:27:29Z</time>
      </trkpt>
      <trkpt lat="47.5663" lon="4.31058">
        <ele>392.36</ele>
        <time>2021-06-01T07:27:41Z</time>
      </trkpt>
      <trkpt lat="47.56668" lon="4.31081">
        <ele>394.76</ele>
        <time>2021-06-01T07:27:58Z</time>
      </trkpt>
      <trkpt lat="47.56702" lon="4.31099">
        <ele>395.24</ele>
        <time>2021-06-01T07:28:12Z</time>
      </trkpt>
      <trkpt lat="47.56733" lon="4.31116">
        <ele>397.16</ele>
        <time>2021-06-01T07:28:24Z</time>
      </trkpt>
      <trkpt lat="47.56765" lon="4.31132">
        <ele>399.57</ele>
        <time>2021-06-01T07:28:35Z</time>
      </trkpt>
      <trkpt lat="47.56811" lon="4.31154">
        <ele>396.2</ele>
        <time>2021-06-01T07:28:48Z</time>
      </trkpt>
      <trkpt lat="47.56851" lon="4.31158">
        <ele>393.8</ele>
        <time>2021-06-01T07:28:58Z</time>
      </trkpt>
      <trkpt lat="47.56908" lon="4.31153">
        <ele>393.8</ele>
        <time>2021-06-01T07:29:10Z</time>
      </trkpt>
      <trkpt lat="47.56934" lon="4.31157">
        <ele>393.8</ele>
        <time>2021-06-01T07:29:14Z</time>
      </trkpt>
      <trkpt lat="47.5696" lon="4.31154">
        <ele>392.84</ele>
        <time>2021-06-01T07:29:18Z</time>
      </trkpt>
      <trkpt lat="47.5699" lon="4.31148">
        <ele>390.91</ele>
        <time>2021-06-01T07:29:23Z</time>
      </trkpt>
      <trkpt lat="47.57025" lon="4.31137">
        <ele>387.55</ele>
        <time>2021-06-01T07:29:31Z</time>
      </trkpt>
      <trkpt lat="47.57036" lon="4.31133">
        <ele>387.55</ele>
        <time>2021-06-01T07:29:33Z</time>
      </trkpt>
      <trkpt lat="47.57053" lon="4.31129">
        <ele>388.03</ele>
        <time>2021-06-01T07:29:36Z</time>
      </trkpt>
      <trkpt lat="47.57069" lon="4.3112">
        <ele>387.07</ele>
        <time>2021-06-01T07:29:39Z</time>
      </trkpt>
      <trkpt lat="47.5713" lon="4.31112">
        <ele>383.22</ele>
        <time>2021-06-01T07:29:48Z</time>
      </trkpt>
      <trkpt lat="47.57173" lon="4.31104">
        <ele>380.82</ele>
        <time>2021-06-01T07:30:00Z</time>
      </trkpt>
      <trkpt lat="47.57195" lon="4.31089">
        <ele>378.42</ele>
        <time>2021-06-01T07:30:15Z</time>
      </trkpt>
      <trkpt lat="47.57208" lon="4.31077">
        <ele>382.74</ele>
        <time>2021-06-01T07:30:28Z</time>
      </trkpt>
      <trkpt lat="47.57223" lon="4.3106">
        <ele>386.59</ele>
        <time>2021-06-01T07:30:44Z</time>
      </trkpt>
      <trkpt lat="47.57229" lon="4.31054">
        <ele>388.03</ele>
        <time>2021-06-01T07:30:50Z</time>
      </trkpt>
      <trkpt lat="47.57246" lon="4.31044">
        <ele>390.43</ele>
        <time>2021-06-01T07:31:05Z</time>
      </trkpt>
      <trkpt lat="47.57266" lon="4.31044">
        <ele>389.95</ele>
        <time>2021-06-01T07:31:20Z</time>
      </trkpt>
      <trkpt lat="47.57268" lon="4.31045">
        <ele>390.43</ele>
        <time>2021-06-01T07:31:22Z</time>
      </trkpt>
      <trkpt lat="47.5728" lon="4.31041">
        <ele>390.91</ele>
        <time>2021-06-01T07:31:32Z</time>
      </trkpt>
      <trkpt lat="47.57299" lon="4.31036">
        <ele>392.84</ele>
        <time>2021-06-01T07:31:49Z</time>
      </trkpt>
      <trkpt lat="47.57316" lon="4.31031">
        <ele>393.32</ele>
        <time>2021-06-01T07:32:04Z</time>
      </trkpt>
      <trkpt lat="47.57332" lon="4.31023">
        <ele>395.24</ele>
        <time>2021-06-01T07:32:17Z</time>
      </trkpt>
      <trkpt lat="47.57357" lon="4.31015">
        <ele>396.68</ele>
        <time>2021-06-01T07:32:36Z</time>
      </trkpt>
      <trkpt lat="47.57384" lon="4.3101">
        <ele>398.12</ele>
        <time>2021-06-01T07:32:56Z</time>
      </trkpt>
      <trkpt lat="47.5741" lon="4.31007">
        <ele>400.05</ele>
        <time>2021-06-01T07:33:16Z</time>
      </trkpt>
      <trkpt lat="47.57433" lon="4.30995">
        <ele>401.49</ele>
        <time>2021-06-01T07:33:34Z</time>
      </trkpt>
      <trkpt lat="47.5746" lon="4.30976">
        <ele>401.49</ele>
        <time>2021-06-01T07:33:54Z</time>
      </trkpt>
      <trkpt lat="47.57487" lon="4.30961">
        <ele>406.29</ele>
        <time>2021-06-01T07:34:12Z</time>
      </trkpt>
      <trkpt lat="47.57514" lon="4.30953">
        <ele>410.14</ele>
        <time>2021-06-01T07:34:26Z</time>
      </trkpt>
      <trkpt lat="47.57545" lon="4.30945">
        <ele>413.5</ele>
        <time>2021-06-01T07:34:41Z</time>
      </trkpt>
      <trkpt lat="47.57578" lon="4.30929">
        <ele>419.75</ele>
        <time>2021-06-01T07:34:57Z</time>
      </trkpt>
      <trkpt lat="47.57603" lon="4.30917">
        <ele>423.12</ele>
        <time>2021-06-01T07:35:10Z</time>
      </trkpt>
      <trkpt lat="47.57625" lon="4.30906">
        <ele>427.44</ele>
        <time>2021-06-01T07:35:22Z</time>
      </trkpt>
      <trkpt lat="47.57651" lon="4.30893">
        <ele>431.77</ele>
        <time>2021-06-01T07:35:33Z</time>
      </trkpt>
      <trkpt lat="47.57675" lon="4.30877">
        <ele>438.5</ele>
        <time>2021-06-01T07:35:44Z</time>
      </trkpt>
      <trkpt lat="47.57732" lon="4.30849">
        <ele>437.54</ele>
        <time>2021-06-01T07:35:59Z</time>
      </trkpt>
      <trkpt lat="47.57739" lon="4.30841">
        <ele>435.13</ele>
        <time>2021-06-01T07:36:01Z</time>
      </trkpt>
      <trkpt lat="47.57761" lon="4.30828">
        <ele>430.33</ele>
        <time>2021-06-01T07:36:05Z</time>
      </trkpt>
      <trkpt lat="47.57818" lon="4.30782">
        <ele>418.31</ele>
        <time>2021-06-01T07:36:15Z</time>
      </trkpt>
      <trkpt lat="47.57839" lon="4.30768">
        <ele>414.95</ele>
        <time>2021-06-01T07:36:19Z</time>
      </trkpt>
      <trkpt lat="47.57912" lon="4.30716">
        <ele>408.22</ele>
        <time>2021-06-01T07:36:34Z</time>
      </trkpt>
      <trkpt lat="47.57967" lon="4.30684">
        <ele>406.77</ele>
        <time>2021-06-01T07:36:47Z</time>
      </trkpt>
      <trkpt lat="47.58029" lon="4.30644">
        <ele>403.41</ele>
        <time>2021-06-01T07:37:02Z</time>
      </trkpt>
      <trkpt lat="47.58076" lon="4.30623">
        <ele>403.41</ele>
        <time>2021-06-01T07:37:14Z</time>
      </trkpt>
      <trkpt lat="47.58097" lon="4.30616">
        <ele>403.89</ele>
        <time>2021-06-01T07:37:19Z</time>
      </trkpt>
      <trkpt lat="47.58118" lon="4.30615">
        <ele>405.33</ele>
        <time>2021-06-01T07:37:24Z</time>
      </trkpt>
      <trkpt lat="47.58157" lon="4.3061">
        <ele>411.1</ele>
        <time>2021-06-01T07:37:36Z</time>
      </trkpt>
      <trkpt lat="47.58163" lon="4.30608">
        <ele>411.58</ele>
        <time>2021-06-01T07:37:38Z</time>
      </trkpt>
      <trkpt lat="47.58205" lon="4.30624">
        <ele>414.47</ele>
        <time>2021-06-01T07:37:50Z</time>
      </trkpt>
      <trkpt lat="47.58233" lon="4.30635">
        <ele>417.35</ele>
        <time>2021-06-01T07:37:58Z</time>
      </trkpt>
      <trkpt lat="47.58256" lon="4.30641">
        <ele>419.27</ele>
        <time>2021-06-01T07:38:04Z</time>
      </trkpt>
      <trkpt lat="47.58269" lon="4.30641">
        <ele>420.71</ele>
        <time>2021-06-01T07:38:07Z</time>
      </trkpt>
      <trkpt lat="47.58286" lon="4.30643">
        <ele>422.16</ele>
        <time>2021-06-01T07:38:11Z</time>
      </trkpt>
      <trkpt lat="47.58337" lon="4.30643">
        <ele>426.96</ele>
        <time>2021-06-01T07:38:22Z</time>
      </trkpt>
      <trkpt lat="47.58374" lon="4.30637">
        <ele>427.44</ele>
        <time>2021-06-01T07:38:28Z</time>
      </trkpt>
      <trkpt lat="47.58475" lon="4.30634">
        <ele>412.06</ele>
        <time>2021-06-01T07:38:42Z</time>
      </trkpt>
      <trkpt lat="47.58561" lon="4.30658">
        <ele>402.45</ele>
        <time>2021-06-01T07:38:55Z</time>
      </trkpt>
      <trkpt lat="47.58598" lon="4.30647">
        <ele>399.08</ele>
        <time>2021-06-01T07:39:00Z</time>
      </trkpt>
      <trkpt lat="47.58697" lon="4.30636">
        <ele>389.47</ele>
        <time>2021-06-01T07:39:12Z</time>
      </trkpt>
      <trkpt lat="47.58794" lon="4.30638">
        <ele>382.74</ele>
        <time>2021-06-01T07:39:24Z</time>
      </trkpt>
      <trkpt lat="47.58806" lon="4.30643">
        <ele>381.78</ele>
        <time>2021-06-01T07:39:26Z</time>
      </trkpt>
      <trkpt lat="47.58814" lon="4.30644">
        <ele>380.82</ele>
        <time>2021-06-01T07:39:28Z</time>
      </trkpt>
      <trkpt lat="47.58817" lon="4.30641">
        <ele>380.34</ele>
        <time>2021-06-01T07:39:29Z</time>
      </trkpt>
      <trkpt lat="47.58818" lon="4.30638">
        <ele>379.86</ele>
        <time>2021-06-01T07:39:30Z</time>
      </trkpt>
      <trkpt lat="47.58818" lon="4.30634">
        <ele>379.86</ele>
        <time>2021-06-01T07:39:31Z</time>
      </trkpt>
      <trkpt lat="47.58817" lon="4.3063">
        <ele>379.38</ele>
        <time>2021-06-01T07:39:32Z</time>
      </trkpt>
      <trkpt lat="47.58816" lon="4.30625">
        <ele>378.9</ele>
        <time>2021-06-01T07:39:33Z</time>
      </trkpt>
      <trkpt lat="47.58787" lon="4.30523">
        <ele>375.53</ele>
        <time>2021-06-01T07:39:49Z</time>
      </trkpt>
      <trkpt lat="47.58738" lon="4.30396">
        <ele>373.61</ele>
        <time>2021-06-01T07:40:08Z</time>
      </trkpt>
      <trkpt lat="47.58678" lon="4.30267">
        <ele>371.21</ele>
        <time>2021-06-01T07:40:28Z</time>
      </trkpt>
      <trkpt lat="47.58605" lon="4.30111">
        <ele>368.32</ele>
        <time>2021-06-01T07:40:52Z</time>
      </trkpt>
      <trkpt lat="47.58551" lon="4.30008">
        <ele>368.32</ele>
        <time>2021-06-01T07:41:10Z</time>
      </trkpt>
      <trkpt lat="47.58494" lon="4.29893">
        <ele>368.32</ele>
        <time>2021-06-01T07:41:31Z</time>
      </trkpt>
      <trkpt lat="47.58485" lon="4.29863">
        <ele>367.84</ele>
        <time>2021-06-01T07:41:36Z</time>
      </trkpt>
      <trkpt lat="47.58484" lon="4.29857">
        <ele>367.36</ele>
        <time>2021-06-01T07:41:37Z</time>
      </trkpt>
      <trkpt lat="47.58484" lon="4.29743">
        <ele>363.52</ele>
        <time>2021-06-01T07:41:51Z</time>
      </trkpt>
      <trkpt lat="47.58498" lon="4.29592">
        <ele>356.31</ele>
        <time>2021-06-01T07:42:06Z</time>
      </trkpt>
      <trkpt lat="47.585" lon="4.29532">
        <ele>352.94</ele>
        <time>2021-06-01T07:42:11Z</time>
      </trkpt>
      <trkpt lat="47.58498" lon="4.2952">
        <ele>351.98</ele>
        <time>2021-06-01T07:42:12Z</time>
      </trkpt>
      <trkpt lat="47.58495" lon="4.29507">
        <ele>351.5</ele>
        <time>2021-06-01T07:42:13Z</time>
      </trkpt>
      <trkpt lat="47.58469" lon="4.29449">
        <ele>347.65</ele>
        <time>2021-06-01T07:42:18Z</time>
      </trkpt>
      <trkpt lat="47.58462" lon="4.2944">
        <ele>346.69</ele>
        <time>2021-06-01T07:42:19Z</time>
      </trkpt>
      <trkpt lat="47.58447" lon="4.29423">
        <ele>344.77</ele>
        <time>2021-06-01T07:42:21Z</time>
      </trkpt>
      <trkpt lat="47.5844" lon="4.29417">
        <ele>343.81</ele>
        <time>2021-06-01T07:42:22Z</time>
      </trkpt>
      <trkpt lat="47.58434" lon="4.29413">
        <ele>342.85</ele>
        <time>2021-06-01T07:42:23Z</time>
      </trkpt>
      <trkpt lat="47.58427" lon="4.29411">
        <ele>342.37</ele>
        <time>2021-06-01T07:42:24Z</time>
      </trkpt>
      <trkpt lat="47.5842" lon="4.29411">
        <ele>341.89</ele>
        <time>2021-06-01T07:42:25Z</time>
      </trkpt>
      <trkpt lat="47.58414" lon="4.29414">
        <ele>340.92</ele>
        <time>2021-06-01T07:42:26Z</time>
      </trkpt>
      <trkpt lat="47.58408" lon="4.29419">
        <ele>339.96</ele>
        <time>2021-06-01T07:42:27Z</time>
      </trkpt>
      <trkpt lat="47.58403" lon="4.29425">
        <ele>339.48</ele>
        <time>2021-06-01T07:42:28Z</time>
      </trkpt>
      <trkpt lat="47.58399" lon="4.29432">
        <ele>338.52</ele>
        <time>2021-06-01T07:42:29Z</time>
      </trkpt>
      <trkpt lat="47.58395" lon="4.29438">
        <ele>338.04</ele>
        <time>2021-06-01T07:42:30Z</time>
      </trkpt>
      <trkpt lat="47.5839" lon="4.29444">
        <ele>337.56</ele>
        <time>2021-06-01T07:42:31Z</time>
      </trkpt>
      <trkpt lat="47.58386" lon="4.29449">
        <ele>337.08</ele>
        <time>2021-06-01T07:42:32Z</time>
      </trkpt>
      <trkpt lat="47.58381" lon="4.29452">
        <ele>336.6</ele>
        <time>2021-06-01T07:42:33Z</time>
      </trkpt>
      <trkpt lat="47.58376" lon="4.29453">
        <ele>336.6</ele>
        <time>2021-06-01T07:42:34Z</time>
      </trkpt>
      <trkpt lat="47.58371" lon="4.29449">
        <ele>336.12</ele>
        <time>2021-06-01T07:42:35Z</time>
      </trkpt>
      <trkpt lat="47.58368" lon="4.29443">
        <ele>336.12</ele>
        <time>2021-06-01T07:42:36Z</time>
      </trkpt>
      <trkpt lat="47.58366" lon="4.29436">
        <ele>336.12</ele>
        <time>2021-06-01T07:42:37Z</time>
      </trkpt>
      <trkpt lat="47.58367" lon="4.29428">
        <ele>336.12</ele>
        <time>2021-06-01T07:42:38Z</time>
      </trkpt>
      <trkpt lat="47.58369" lon="4.2942">
        <ele>336.12</ele>
        <time>2021-06-01T07:42:39Z</time>
      </trkpt>
      <trkpt lat="47.58373" lon="4.29414">
        <ele>336.12</ele>
        <time>2021-06-01T07:42:40Z</time>
      </trkpt>
      <trkpt lat="47.58377" lon="4.29407">
        <ele>336.12</ele>
        <time>2021-06-01T07:42:41Z</time>
      </trkpt>
      <trkpt lat="47.58381" lon="4.294">
        <ele>336.12</ele>
        <time>2021-06-01T07:42:42Z</time>
      </trkpt>
      <trkpt lat="47.58441" lon="4.29298">
        <ele>328.43</ele>
        <time>2021-06-01T07:42:54Z</time>
      </trkpt>
      <trkpt lat="47.58459" lon="4.29271">
        <ele>326.5</ele>
        <time>2021-06-01T07:42:57Z</time>
      </trkpt>
      <trkpt lat="47.58491" lon="4.29238">
        <ele>326.02</ele>
        <time>2021-06-01T07:43:03Z</time>
      </trkpt>
      <trkpt lat="47.58492" lon="4.29233">
        <ele>326.5</ele>
        <time>2021-06-01T07:43:04Z</time>
      </trkpt>
      <trkpt lat="47.58491" lon="4.29229">
        <ele>326.99</ele>
        <time>2021-06-01T07:43:05Z</time>
      </trkpt>
      <trkpt lat="47.58489" lon="4.29227">
        <ele>326.99</ele>
        <time>2021-06-01T07:43:06Z</time>
      </trkpt>
      <trkpt lat="47.58487" lon="4.29226">
        <ele>327.47</ele>
        <time>2021-06-01T07:43:07Z</time>
      </trkpt>
      <trkpt lat="47.58485" lon="4.29225">
        <ele>327.95</ele>
        <time>2021-06-01T07:43:08Z</time>
      </trkpt>
      <trkpt lat="47.58482" lon="4.29226">
        <ele>327.95</ele>
        <time>2021-06-01T07:43:09Z</time>
      </trkpt>
      <trkpt lat="47.58457" lon="4.2922">
        <ele>331.79</ele>
        <time>2021-06-01T07:43:21Z</time>
      </trkpt>
      <trkpt lat="47.58437" lon="4.29197">
        <ele>338.04</ele>
        <time>2021-06-01T07:43:37Z</time>
      </trkpt>
      <trkpt lat="47.58421" lon="4.29164">
        <ele>337.08</ele>
        <time>2021-06-01T07:43:54Z</time>
      </trkpt>
      <trkpt lat="47.58406" lon="4.29136">
        <ele>338.04</ele>
        <time>2021-06-01T07:44:10Z</time>
      </trkpt>
      <trkpt lat="47.58401" lon="4.29116">
        <ele>339</ele>
        <time>2021-06-01T07:44:20Z</time>
      </trkpt>
      <trkpt lat="47.58385" lon="4.29089">
        <ele>341.41</ele>
        <time>2021-06-01T07:44:36Z</time>
      </trkpt>
      <trkpt lat="47.58367" lon="4.29066">
        <ele>344.29</ele>
        <time>2021-06-01T07:44:52Z</time>
      </trkpt>
      <trkpt lat="47.58356" lon="4.29047">
        <ele>346.69</ele>
        <time>2021-06-01T07:45:06Z</time>
      </trkpt>
      <trkpt lat="47.58347" lon="4.29039">
        <ele>347.65</ele>
        <time>2021-06-01T07:45:12Z</time>
      </trkpt>
      <trkpt lat="47.58345" lon="4.29037">
        <ele>347.65</ele>
        <time>2021-06-01T07:45:13Z</time>
      </trkpt>
      <trkpt lat="47.58344" lon="4.29036">
        <ele>348.13</ele>
        <time>2021-06-01T07:45:14Z</time>
      </trkpt>
      <trkpt lat="47.58343" lon="4.29034">
        <ele>348.62</ele>
        <time>2021-06-01T07:45:15Z</time>
      </trkpt>
      <trkpt lat="47.5834" lon="4.29032">
        <ele>349.58</ele>
        <time>2021-06-01T07:45:17Z</time>
      </trkpt>
      <trkpt lat="47.58321" lon="4.29017">
        <ele>356.31</ele>
        <time>2021-06-01T07:45:31Z</time>
      </trkpt>
      <trkpt lat="47.5832" lon="4.29017">
        <ele>356.79</ele>
        <time>2021-06-01T07:45:32Z</time>
      </trkpt>
      <trkpt lat="47.58318" lon="4.29017">
        <ele>357.75</ele>
        <time>2021-06-01T07:45:33Z</time>
      </trkpt>
      <trkpt lat="47.58303" lon="4.29011">
        <ele>370.24</ele>
        <time>2021-06-01T07:45:47Z</time>
      </trkpt>
      <trkpt lat="47.58289" lon="4.29007">
        <ele>373.61</ele>
        <time>2021-06-01T07:45:57Z</time>
      </trkpt>
      <trkpt lat="47.58288" lon="4.29007">
        <ele>373.61</ele>
        <time>2021-06-01T07:45:58Z</time>
      </trkpt>
      <trkpt lat="47.58284" lon="4.29006">
        <ele>375.53</ele>
        <time>2021-06-01T07:46:01Z</time>
      </trkpt>
      <trkpt lat="47.5828" lon="4.29007">
        <ele>376.97</ele>
        <time>2021-06-01T07:46:04Z</time>
      </trkpt>
      <trkpt lat="47.5827" lon="4.29011">
        <ele>381.3</ele>
        <time>2021-06-01T07:46:14Z</time>
      </trkpt>
      <trkpt lat="47.58261" lon="4.29015">
        <ele>386.11</ele>
        <time>2021-06-01T07:46:24Z</time>
      </trkpt>
      <trkpt lat="47.5826" lon="4.29017">
        <ele>387.07</ele>
        <time>2021-06-01T07:46:25Z</time>
      </trkpt>
      <trkpt lat="47.58245" lon="4.29035">
        <ele>393.32</ele>
        <time>2021-06-01T07:46:39Z</time>
      </trkpt>
      <trkpt lat="47.58224" lon="4.29048">
        <ele>393.32</ele>
        <time>2021-06-01T07:46:57Z</time>
      </trkpt>
      <trkpt lat="47.58199" lon="4.2905">
        <ele>380.82</ele>
        <time>2021-06-01T07:47:12Z</time>
      </trkpt>
      <trkpt lat="47.58171" lon="4.29056">
        <ele>371.69</ele>
        <time>2021-06-01T07:47:29Z</time>
      </trkpt>
      <trkpt lat="47.58148" lon="4.2905">
        <ele>370.24</ele>
        <time>2021-06-01T07:47:45Z</time>
      </trkpt>
      <trkpt lat="47.58132" lon="4.29024">
        <ele>371.69</ele>
        <time>2021-06-01T07:48:04Z</time>
      </trkpt>
      <trkpt lat="47.58125" lon="4.28992">
        <ele>378.42</ele>
        <time>2021-06-01T07:48:23Z</time>
      </trkpt>
      <trkpt lat="47.5812" lon="4.28959">
        <ele>383.7</ele>
        <time>2021-06-01T07:48:42Z</time>
      </trkpt>
      <trkpt lat="47.58124" lon="4.28916">
        <ele>386.11</ele>
        <time>2021-06-01T07:48:59Z</time>
      </trkpt>
      <trkpt lat="47.58138" lon="4.2884">
        <ele>386.11</ele>
        <time>2021-06-01T07:49:18Z</time>
      </trkpt>
      <trkpt lat="47.58157" lon="4.28726">
        <ele>386.11</ele>
        <time>2021-06-01T07:49:41Z</time>
      </trkpt>
      <trkpt lat="47.58174" lon="4.28625">
        <ele>384.66</ele>
        <time>2021-06-01T07:49:59Z</time>
      </trkpt>
      <trkpt lat="47.58195" lon="4.28503">
        <ele>381.78</ele>
        <time>2021-06-01T07:50:17Z</time>
      </trkpt>
      <trkpt lat="47.58223" lon="4.2836">
        <ele>374.09</ele>
        <time>2021-06-01T07:50:32Z</time>
      </trkpt>
      <trkpt lat="47.58226" lon="4.28229">
        <ele>364.96</ele>
        <time>2021-06-01T07:50:44Z</time>
      </trkpt>
      <trkpt lat="47.58237" lon="4.28079">
        <ele>352.94</ele>
        <time>2021-06-01T07:50:53Z</time>
      </trkpt>
      <trkpt lat="47.58279" lon="4.27939">
        <ele>342.85</ele>
        <time>2021-06-01T07:51:02Z</time>
      </trkpt>
      <trkpt lat="47.58291" lon="4.27863">
        <ele>339</ele>
        <time>2021-06-01T07:51:07Z</time>
      </trkpt>
      <trkpt lat="47.58291" lon="4.27847">
        <ele>338.52</ele>
        <time>2021-06-01T07:51:08Z</time>
      </trkpt>
      <trkpt lat="47.58289" lon="4.27831">
        <ele>337.56</ele>
        <time>2021-06-01T07:51:09Z</time>
      </trkpt>
      <trkpt lat="47.58287" lon="4.27816">
        <ele>337.08</ele>
        <time>2021-06-01T07:51:10Z</time>
      </trkpt>
      <trkpt lat="47.58283" lon="4.27802">
        <ele>336.6</ele>
        <time>2021-06-01T07:51:11Z</time>
      </trkpt>
      <trkpt lat="47.58279" lon="4.27787">
        <ele>335.64</ele>
        <time>2021-06-01T07:51:12Z</time>
      </trkpt>
      <trkpt lat="47.5826" lon="4.27735">
        <ele>333.71</ele>
        <time>2021-06-01T07:51:16Z</time>
      </trkpt>
      <trkpt lat="47.58194" lon="4.2766">
        <ele>331.31</ele>
        <time>2021-06-01T07:51:26Z</time>
      </trkpt>
      <trkpt lat="47.58136" lon="4.27626">
        <ele>327.95</ele>
        <time>2021-06-01T07:51:34Z</time>
      </trkpt>
      <trkpt lat="47.58128" lon="4.27624">
        <ele>327.47</ele>
        <time>2021-06-01T07:51:35Z</time>
      </trkpt>
      <trkpt lat="47.58003" lon="4.27598">
        <ele>322.18</ele>
        <time>2021-06-01T07:51:50Z</time>
      </trkpt>
      <trkpt lat="47.57947" lon="4.27586">
        <ele>319.78</ele>
        <time>2021-06-01T07:51:57Z</time>
      </trkpt>
      <trkpt lat="47.5794" lon="4.27582">
        <ele>319.3</ele>
        <time>2021-06-01T07:51:58Z</time>
      </trkpt>
      <trkpt lat="47.57933" lon="4.27577">
        <ele>319.3</ele>
        <time>2021-06-01T07:51:59Z</time>
      </trkpt>
      <trkpt lat="47.57926" lon="4.27572">
        <ele>319.3</ele>
        <time>2021-06-01T07:52:00Z</time>
      </trkpt>
      <trkpt lat="47.57921" lon="4.27566">
        <ele>319.3</ele>
        <time>2021-06-01T07:52:01Z</time>
      </trkpt>
      <trkpt lat="47.57917" lon="4.27559">
        <ele>318.81</ele>
        <time>2021-06-01T07:52:02Z</time>
      </trkpt>
      <trkpt lat="47.57915" lon="4.27551">
        <ele>318.81</ele>
        <time>2021-06-01T07:52:03Z</time>
      </trkpt>
      <trkpt lat="47.57914" lon="4.27541">
        <ele>318.81</ele>
        <time>2021-06-01T07:52:04Z</time>
      </trkpt>
      <trkpt lat="47.57915" lon="4.27532">
        <ele>318.81</ele>
        <time>2021-06-01T07:52:05Z</time>
      </trkpt>
      <trkpt lat="47.57916" lon="4.27522">
        <ele>318.33</ele>
        <time>2021-06-01T07:52:06Z</time>
      </trkpt>
      <trkpt lat="47.57927" lon="4.2738">
        <ele>311.12</ele>
        <time>2021-06-01T07:52:17Z</time>
      </trkpt>
      <trkpt lat="47.57936" lon="4.27335">
        <ele>308.24</ele>
        <time>2021-06-01T07:52:20Z</time>
      </trkpt>
      <trkpt lat="47.57941" lon="4.2732">
        <ele>307.28</ele>
        <time>2021-06-01T07:52:21Z</time>
      </trkpt>
      <trkpt lat="47.58015" lon="4.27164">
        <ele>291.9</ele>
        <time>2021-06-01T07:52:32Z</time>
      </trkpt>
      <trkpt lat="47.58075" lon="4.27094">
        <ele>284.21</ele>
        <time>2021-06-01T07:52:39Z</time>
      </trkpt>
      <trkpt lat="47.58082" lon="4.27083">
        <ele>283.25</ele>
        <time>2021-06-01T07:52:40Z</time>
      </trkpt>
      <trkpt lat="47.58118" lon="4.27023">
        <ele>278.44</ele>
        <time>2021-06-01T07:52:45Z</time>
      </trkpt>
      <trkpt lat="47.58133" lon="4.27004">
        <ele>276.04</ele>
        <time>2021-06-01T07:52:47Z</time>
      </trkpt>
      <trkpt lat="47.58139" lon="4.26993">
        <ele>274.59</ele>
        <time>2021-06-01T07:52:48Z</time>
      </trkpt>
      <trkpt lat="47.58146" lon="4.26979">
        <ele>273.15</ele>
        <time>2021-06-01T07:52:49Z</time>
      </trkpt>
      <trkpt lat="47.58152" lon="4.26964">
        <ele>271.23</ele>
        <time>2021-06-01T07:52:50Z</time>
      </trkpt>
      <trkpt lat="47.58158" lon="4.26949">
        <ele>269.79</ele>
        <time>2021-06-01T07:52:51Z</time>
      </trkpt>
      <trkpt lat="47.58184" lon="4.26895">
        <ele>262.1</ele>
        <time>2021-06-01T07:52:55Z</time>
      </trkpt>
      <trkpt lat="47.58192" lon="4.26885">
        <ele>260.65</ele>
        <time>2021-06-01T07:52:56Z</time>
      </trkpt>
      <trkpt lat="47.58215" lon="4.26855">
        <ele>255.85</ele>
        <time>2021-06-01T07:52:59Z</time>
      </trkpt>
      <trkpt lat="47.58221" lon="4.26844">
        <ele>254.41</ele>
        <time>2021-06-01T07:53:00Z</time>
      </trkpt>
      <trkpt lat="47.58225" lon="4.26833">
        <ele>252.96</ele>
        <time>2021-06-01T07:53:01Z</time>
      </trkpt>
      <trkpt lat="47.58229" lon="4.26821">
        <ele>252</ele>
        <time>2021-06-01T07:53:02Z</time>
      </trkpt>
      <trkpt lat="47.58231" lon="4.2681">
        <ele>250.56</ele>
        <time>2021-06-01T07:53:03Z</time>
      </trkpt>
      <trkpt lat="47.58232" lon="4.26799">
        <ele>250.08</ele>
        <time>2021-06-01T07:53:04Z</time>
      </trkpt>
      <trkpt lat="47.58233" lon="4.26789">
        <ele>249.12</ele>
        <time>2021-06-01T07:53:05Z</time>
      </trkpt>
      <trkpt lat="47.58235" lon="4.2678">
        <ele>248.16</ele>
        <time>2021-06-01T07:53:06Z</time>
      </trkpt>
      <trkpt lat="47.58238" lon="4.26771">
        <ele>247.2</ele>
        <time>2021-06-01T07:53:07Z</time>
      </trkpt>
      <trkpt lat="47.58242" lon="4.26762">
        <ele>246.23</ele>
        <time>2021-06-01T07:53:08Z</time>
      </trkpt>
      <trkpt lat="47.58248" lon="4.26753">
        <ele>245.27</ele>
        <time>2021-06-01T07:53:09Z</time>
      </trkpt>
      <trkpt lat="47.58254" lon="4.26746">
        <ele>244.31</ele>
        <time>2021-06-01T07:53:10Z</time>
      </trkpt>
      <trkpt lat="47.5826" lon="4.26739">
        <ele>242.87</ele>
        <time>2021-06-01T07:53:11Z</time>
      </trkpt>
      <trkpt lat="47.58272" lon="4.26726">
        <ele>240.47</ele>
        <time>2021-06-01T07:53:13Z</time>
      </trkpt>
      <trkpt lat="47.58277" lon="4.26717">
        <ele>239.51</ele>
        <time>2021-06-01T07:53:14Z</time>
      </trkpt>
      <trkpt lat="47.5828" lon="4.26707">
        <ele>238.06</ele>
        <time>2021-06-01T07:53:15Z</time>
      </trkpt>
      <trkpt lat="47.58282" lon="4.26696">
        <ele>237.1</ele>
        <time>2021-06-01T07:53:16Z</time>
      </trkpt>
      <trkpt lat="47.58283" lon="4.26686">
        <ele>236.14</ele>
        <time>2021-06-01T07:53:17Z</time>
      </trkpt>
      <trkpt lat="47.58285" lon="4.2667">
        <ele>234.7</ele>
        <time>2021-06-01T07:53:19Z</time>
      </trkpt>
      <trkpt lat="47.58287" lon="4.26663">
        <ele>233.74</ele>
        <time>2021-06-01T07:53:20Z</time>
      </trkpt>
      <trkpt lat="47.58291" lon="4.26657">
        <ele>232.78</ele>
        <time>2021-06-01T07:53:21Z</time>
      </trkpt>
      <trkpt lat="47.58297" lon="4.26652">
        <ele>232.3</ele>
        <time>2021-06-01T07:53:22Z</time>
      </trkpt>
      <trkpt lat="47.58302" lon="4.26647">
        <ele>231.81</ele>
        <time>2021-06-01T07:53:23Z</time>
      </trkpt>
      <trkpt lat="47.58307" lon="4.26642">
        <ele>231.33</ele>
        <time>2021-06-01T07:53:24Z</time>
      </trkpt>
      <trkpt lat="47.58313" lon="4.26639">
        <ele>230.85</ele>
        <time>2021-06-01T07:53:25Z</time>
      </trkpt>
      <trkpt lat="47.58319" lon="4.26638">
        <ele>230.85</ele>
        <time>2021-06-01T07:53:26Z</time>
      </trkpt>
      <trkpt lat="47.58325" lon="4.26638">
        <ele>230.37</ele>
        <time>2021-06-01T07:53:27Z</time>
      </trkpt>
      <trkpt lat="47.58331" lon="4.2664">
        <ele>230.37</ele>
        <time>2021-06-01T07:53:28Z</time>
      </trkpt>
      <trkpt lat="47.58343" lon="4.26644">
        <ele>230.85</ele>
        <time>2021-06-01T07:53:30Z</time>
      </trkpt>
      <trkpt lat="47.58349" lon="4.26647">
        <ele>230.85</ele>
        <time>2021-06-01T07:53:31Z</time>
      </trkpt>
      <trkpt lat="47.58354" lon="4.26651">
        <ele>230.85</ele>
        <time>2021-06-01T07:53:32Z</time>
      </trkpt>
      <trkpt lat="47.5836" lon="4.26655">
        <ele>230.85</ele>
        <time>2021-06-01T07:53:33Z</time>
      </trkpt>
      <trkpt lat="47.58365" lon="4.26658">
        <ele>231.33</ele>
        <time>2021-06-01T07:53:34Z</time>
      </trkpt>
      <trkpt lat="47.5837" lon="4.26658">
        <ele>231.33</ele>
        <time>2021-06-01T07:53:35Z</time>
      </trkpt>
      <trkpt lat="47.58375" lon="4.26655">
        <ele>231.33</ele>
        <time>2021-06-01T07:53:36Z</time>
      </trkpt>
      <trkpt lat="47.58379" lon="4.26649">
        <ele>231.81</ele>
        <time>2021-06-01T07:53:37Z</time>
      </trkpt>
      <trkpt lat="47.58381" lon="4.26643">
        <ele>231.81</ele>
        <time>2021-06-01T07:53:38Z</time>
      </trkpt>
      <trkpt lat="47.58383" lon="4.26635">
        <ele>231.81</ele>
        <time>2021-06-01T07:53:39Z</time>
      </trkpt>
      <trkpt lat="47.58385" lon="4.26627">
        <ele>231.33</ele>
        <time>2021-06-01T07:53:40Z</time>
      </trkpt>
      <trkpt lat="47.58388" lon="4.26618">
        <ele>231.33</ele>
        <time>2021-06-01T07:53:41Z</time>
      </trkpt>
      <trkpt lat="47.58391" lon="4.26609">
        <ele>230.85</ele>
        <time>2021-06-01T07:53:42Z</time>
      </trkpt>
      <trkpt lat="47.58393" lon="4.26599">
        <ele>230.37</ele>
        <time>2021-06-01T07:53:43Z</time>
      </trkpt>
      <trkpt lat="47.58408" lon="4.26515">
        <ele>225.09</ele>
        <time>2021-06-01T07:53:53Z</time>
      </trkpt>
      <trkpt lat="47.58394" lon="4.26477">
        <ele>224.12</ele>
        <time>2021-06-01T07:54:05Z</time>
      </trkpt>
      <trkpt lat="47.58323" lon="4.26429">
        <ele>221.72</ele>
        <time>2021-06-01T07:54:21Z</time>
      </trkpt>
      <trkpt lat="47.58298" lon="4.26411">
        <ele>220.28</ele>
        <time>2021-06-01T07:54:26Z</time>
      </trkpt>
      <trkpt lat="47.58295" lon="4.26406">
        <ele>219.8</ele>
        <time>2021-06-01T07:54:27Z</time>
      </trkpt>
      <trkpt lat="47.58293" lon="4.26399">
        <ele>219.8</ele>
        <time>2021-06-01T07:54:28Z</time>
      </trkpt>
      <trkpt lat="47.58294" lon="4.26391">
        <ele>219.32</ele>
        <time>2021-06-01T07:54:29Z</time>
      </trkpt>
      <trkpt lat="47.58295" lon="4.26383">
        <ele>218.84</ele>
        <time>2021-06-01T07:54:30Z</time>
      </trkpt>
      <trkpt lat="47.58296" lon="4.26375">
        <ele>218.36</ele>
        <time>2021-06-01T07:54:31Z</time>
      </trkpt>
      <trkpt lat="47.58298" lon="4.26367">
        <ele>218.36</ele>
        <time>2021-06-01T07:54:32Z</time>
      </trkpt>
      <trkpt lat="47.58315" lon="4.26229">
        <ele>216.91</ele>
        <time>2021-06-01T07:54:48Z</time>
      </trkpt>
      <trkpt lat="47.58319" lon="4.26206">
        <ele>216.91</ele>
        <time>2021-06-01T07:54:51Z</time>
      </trkpt>
      <trkpt lat="47.58319" lon="4.26198">
        <ele>216.91</ele>
        <time>2021-06-01T07:54:52Z</time>
      </trkpt>
      <trkpt lat="47.58329" lon="4.26052">
        <ele>216.43</ele>
        <time>2021-06-01T07:55:12Z</time>
      </trkpt>
      <trkpt lat="47.58327" lon="4.26004">
        <ele>215.95</ele>
        <time>2021-06-01T07:55:20Z</time>
      </trkpt>
      <trkpt lat="47.58324" lon="4.26">
        <ele>215.47</ele>
        <time>2021-06-01T07:55:21Z</time>
      </trkpt>
      <trkpt lat="47.5832" lon="4.25996">
        <ele>215.47</ele>
        <time>2021-06-01T07:55:22Z</time>
      </trkpt>
      <trkpt lat="47.58317" lon="4.25994">
        <ele>215.47</ele>
        <time>2021-06-01T07:55:23Z</time>
      </trkpt>
      <trkpt lat="47.58313" lon="4.25992">
        <ele>214.99</ele>
        <time>2021-06-01T07:55:24Z</time>
      </trkpt>
      <trkpt lat="47.58309" lon="4.2599">
        <ele>214.99</ele>
        <time>2021-06-01T07:55:25Z</time>
      </trkpt>
      <trkpt lat="47.58305" lon="4.25988">
        <ele>214.99</ele>
        <time>2021-06-01T07:55:26Z</time>
      </trkpt>
      <trkpt lat="47.58269" lon="4.25964">
        <ele>215.47</ele>
        <time>2021-06-01T07:55:41Z</time>
      </trkpt>
      <trkpt lat="47.58267" lon="4.25958">
        <ele>214.99</ele>
        <time>2021-06-01T07:55:46Z</time>
      </trkpt>
      <trkpt lat="47.58261" lon="4.25923">
        <ele>215.47</ele>
        <time>2021-06-01T07:56:00Z</time>
      </trkpt>
      <trkpt lat="47.58255" lon="4.25876">
        <ele>216.91</ele>
        <time>2021-06-01T07:56:14Z</time>
      </trkpt>
      <trkpt lat="47.58265" lon="4.25815">
        <ele>216.91</ele>
        <time>2021-06-01T07:56:31Z</time>
      </trkpt>
      <trkpt lat="47.58321" lon="4.2579">
        <ele>215.95</ele>
        <time>2021-06-01T07:56:46Z</time>
      </trkpt>
      <trkpt lat="47.58407" lon="4.25776">
        <ele>214.99</ele>
        <time>2021-06-01T07:57:05Z</time>
      </trkpt>
      <trkpt lat="47.58468" lon="4.25779">
        <ele>215.47</ele>
        <time>2021-06-01T07:57:20Z</time>
      </trkpt>
      <trkpt lat="47.58554" lon="4.25776">
        <ele>214.51</ele>
        <time>2021-06-01T07:57:38Z</time>
      </trkpt>
      <trkpt lat="47.58559" lon="4.25774">
        <ele>214.51</ele>
        <time>2021-06-01T07:57:39Z</time>
      </trkpt>
      <trkpt lat="47.58563" lon="4.25772">
        <ele>214.51</ele>
        <time>2021-06-01T07:57:40Z</time>
      </trkpt>
      <trkpt lat="47.58566" lon="4.25769">
        <ele>214.51</ele>
        <time>2021-06-01T07:57:41Z</time>
      </trkpt>
      <trkpt lat="47.58569" lon="4.25765">
        <ele>214.51</ele>
        <time>2021-06-01T07:57:42Z</time>
      </trkpt>
      <trkpt lat="47.58572" lon="4.25761">
        <ele>214.51</ele>
        <time>2021-06-01T07:57:43Z</time>
      </trkpt>
      <trkpt lat="47.58575" lon="4.25756">
        <ele>214.51</ele>
        <time>2021-06-01T07:57:44Z</time>
      </trkpt>
      <trkpt lat="47.58577" lon="4.25751">
        <ele>214.51</ele>
        <time>2021-06-01T07:57:45Z</time>
      </trkpt>
      <trkpt lat="47.58582" lon="4.2574">
        <ele>214.99</ele>
        <time>2021-06-01T07:57:47Z</time>
      </trkpt>
      <trkpt lat="47.58584" lon="4.25735">
        <ele>215.47</ele>
        <time>2021-06-01T07:57:48Z</time>
      </trkpt>
      <trkpt lat="47.58586" lon="4.25729">
        <ele>215.95</ele>
        <time>2021-06-01T07:57:49Z</time>
      </trkpt>
      <trkpt lat="47.58588" lon="4.25724">
        <ele>216.43</ele>
        <time>2021-06-01T07:57:50Z</time>
      </trkpt>
      <trkpt lat="47.5859" lon="4.25718">
        <ele>216.91</ele>
        <time>2021-06-01T07:57:51Z</time>
      </trkpt>
      <trkpt lat="47.58593" lon="4.25712">
        <ele>216.91</ele>
        <time>2021-06-01T07:57:52Z</time>
      </trkpt>
      <trkpt lat="47.58596" lon="4.25707">
        <ele>217.4</ele>
        <time>2021-06-01T07:57:53Z</time>
      </trkpt>
      <trkpt lat="47.58599" lon="4.25702">
        <ele>217.4</ele>
        <time>2021-06-01T07:57:54Z</time>
      </trkpt>
      <trkpt lat="47.58603" lon="4.25697">
        <ele>216.91</ele>
        <time>2021-06-01T07:57:55Z</time>
      </trkpt>
      <trkpt lat="47.58608" lon="4.25694">
        <ele>216.91</ele>
        <time>2021-06-01T07:57:56Z</time>
      </trkpt>
      <trkpt lat="47.58612" lon="4.25691">
        <ele>216.91</ele>
        <time>2021-06-01T07:57:57Z</time>
      </trkpt>
      <trkpt lat="47.58617" lon="4.25689">
        <ele>216.43</ele>
        <time>2021-06-01T07:57:58Z</time>
      </trkpt>
      <trkpt lat="47.58621" lon="4.25689">
        <ele>216.43</ele>
        <time>2021-06-01T07:57:59Z</time>
      </trkpt>
      <trkpt lat="47.58626" lon="4.25689">
        <ele>216.91</ele>
        <time>2021-06-01T07:58:00Z</time>
      </trkpt>
      <trkpt lat="47.5863" lon="4.25691">
        <ele>216.91</ele>
        <time>2021-06-01T07:58:01Z</time>
      </trkpt>
      <trkpt lat="47.58634" lon="4.25692">
        <ele>216.91</ele>
        <time>2021-06-01T07:58:02Z</time>
      </trkpt>
      <trkpt lat="47.58681" lon="4.25718">
        <ele>218.84</ele>
        <time>2021-06-01T07:58:16Z</time>
      </trkpt>
      <trkpt lat="47.58743" lon="4.25763">
        <ele>222.2</ele>
        <time>2021-06-01T07:58:35Z</time>
      </trkpt>
      <trkpt lat="47.58792" lon="4.25837">
        <ele>221.24</ele>
        <time>2021-06-01T07:58:51Z</time>
      </trkpt>
      <trkpt lat="47.58815" lon="4.25873">
        <ele>218.84</ele>
        <time>2021-06-01T07:58:57Z</time>
      </trkpt>
      <trkpt lat="47.58818" lon="4.2588">
        <ele>218.84</ele>
        <time>2021-06-01T07:58:58Z</time>
      </trkpt>
      <trkpt lat="47.58821" lon="4.25887">
        <ele>218.36</ele>
        <time>2021-06-01T07:58:59Z</time>
      </trkpt>
      <trkpt lat="47.58862" lon="4.25994">
        <ele>215.47</ele>
        <time>2021-06-01T07:59:14Z</time>
      </trkpt>
      <trkpt lat="47.58905" lon="4.2606">
        <ele>214.99</ele>
        <time>2021-06-01T07:59:26Z</time>
      </trkpt>
      <trkpt lat="47.58949" lon="4.26115">
        <ele>214.99</ele>
        <time>2021-06-01T07:59:38Z</time>
      </trkpt>
      <trkpt lat="47.59013" lon="4.26185">
        <ele>214.03</ele>
        <time>2021-06-01T07:59:57Z</time>
      </trkpt>
      <trkpt lat="47.59045" lon="4.26227">
        <ele>215.95</ele>
        <time>2021-06-01T08:00:09Z</time>
      </trkpt>
      <trkpt lat="47.59087" lon="4.26272">
        <ele>219.32</ele>
        <time>2021-06-01T08:00:22Z</time>
      </trkpt>
      <trkpt lat="47.59123" lon="4.2631">
        <ele>221.72</ele>
        <time>2021-06-01T08:00:34Z</time>
      </trkpt>
      <trkpt lat="47.59158" lon="4.26342">
        <ele>220.76</ele>
        <time>2021-06-01T08:00:47Z</time>
      </trkpt>
      <trkpt lat="47.59183" lon="4.26356">
        <ele>220.76</ele>
        <time>2021-06-01T08:00:59Z</time>
      </trkpt>
      <trkpt lat="47.59211" lon="4.26368">
        <ele>221.72</ele>
        <time>2021-06-01T08:01:10Z</time>
      </trkpt>
      <trkpt lat="47.59238" lon="4.26378">
        <ele>221.24</ele>
        <time>2021-06-01T08:01:22Z</time>
      </trkpt>
      <trkpt lat="47.59267" lon="4.26391">
        <ele>221.24</ele>
        <time>2021-06-01T08:01:34Z</time>
      </trkpt>
      <trkpt lat="47.59288" lon="4.264">
        <ele>219.8</ele>
        <time>2021-06-01T08:01:44Z</time>
      </trkpt>
      <trkpt lat="47.59323" lon="4.26387">
        <ele>215.47</ele>
        <time>2021-06-01T08:01:58Z</time>
      </trkpt>
      <trkpt lat="47.59356" lon="4.26385">
        <ele>218.36</ele>
        <time>2021-06-01T08:02:10Z</time>
      </trkpt>
      <trkpt lat="47.59383" lon="4.26378">
        <ele>223.64</ele>
        <time>2021-06-01T08:02:21Z</time>
      </trkpt>
      <trkpt lat="47.59416" lon="4.26366">
        <ele>223.64</ele>
        <time>2021-06-01T08:02:33Z</time>
      </trkpt>
      <trkpt lat="47.5944" lon="4.26354">
        <ele>224.12</ele>
        <time>2021-06-01T08:02:44Z</time>
      </trkpt>
      <trkpt lat="47.5947" lon="4.26346">
        <ele>223.16</ele>
        <time>2021-06-01T08:02:56Z</time>
      </trkpt>
      <trkpt lat="47.59508" lon="4.26336">
        <ele>221.72</ele>
        <time>2021-06-01T08:03:10Z</time>
      </trkpt>
      <trkpt lat="47.59543" lon="4.2633">
        <ele>223.64</ele>
        <time>2021-06-01T08:03:23Z</time>
      </trkpt>
      <trkpt lat="47.59586" lon="4.26314">
        <ele>229.41</ele>
        <time>2021-06-01T08:03:37Z</time>
      </trkpt>
      <trkpt lat="47.59618" lon="4.26294">
        <ele>235.18</ele>
        <time>2021-06-01T08:03:47Z</time>
      </trkpt>
      <trkpt lat="47.5966" lon="4.26268">
        <ele>244.31</ele>
        <time>2021-06-01T08:04:02Z</time>
      </trkpt>
      <trkpt lat="47.59715" lon="4.26227">
        <ele>243.35</ele>
        <time>2021-06-01T08:04:16Z</time>
      </trkpt>
      <trkpt lat="47.59764" lon="4.26185">
        <ele>236.14</ele>
        <time>2021-06-01T08:04:30Z</time>
      </trkpt>
      <trkpt lat="47.598" lon="4.2614">
        <ele>231.81</ele>
        <time>2021-06-01T08:04:43Z</time>
      </trkpt>
      <trkpt lat="47.59844" lon="4.26068">
        <ele>226.05</ele>
        <time>2021-06-01T08:04:59Z</time>
      </trkpt>
      <trkpt lat="47.59898" lon="4.25998">
        <ele>219.32</ele>
        <time>2021-06-01T08:05:14Z</time>
      </trkpt>
      <trkpt lat="47.59907" lon="4.25993">
        <ele>219.32</ele>
        <time>2021-06-01T08:05:16Z</time>
      </trkpt>
      <trkpt lat="47.59921" lon="4.25989">
        <ele>218.36</ele>
        <time>2021-06-01T08:05:19Z</time>
      </trkpt>
      <trkpt lat="47.59967" lon="4.25975">
        <ele>218.84</ele>
        <time>2021-06-01T08:05:29Z</time>
      </trkpt>
      <trkpt lat="47.59971" lon="4.25974">
        <ele>219.32</ele>
        <time>2021-06-01T08:05:30Z</time>
      </trkpt>
      <trkpt lat="47.60042" lon="4.25957">
        <ele>218.36</ele>
        <time>2021-06-01T08:05:45Z</time>
      </trkpt>
      <trkpt lat="47.60066" lon="4.2595">
        <ele>218.36</ele>
        <time>2021-06-01T08:05:50Z</time>
      </trkpt>
      <trkpt lat="47.60136" lon="4.25929">
        <ele>215.95</ele>
        <time>2021-06-01T08:06:03Z</time>
      </trkpt>
      <trkpt lat="47.60161" lon="4.2592">
        <ele>215.47</ele>
        <time>2021-06-01T08:06:08Z</time>
      </trkpt>
      <trkpt lat="47.60215" lon="4.25909">
        <ele>215.47</ele>
        <time>2021-06-01T08:06:21Z</time>
      </trkpt>
      <trkpt lat="47.60261" lon="4.25908">
        <ele>216.91</ele>
        <time>2021-06-01T08:06:36Z</time>
      </trkpt>
      <trkpt lat="47.60317" lon="4.25908">
        <ele>216.43</ele>
        <time>2021-06-01T08:06:54Z</time>
      </trkpt>
      <trkpt lat="47.60373" lon="4.25902">
        <ele>216.91</ele>
        <time>2021-06-01T08:07:09Z</time>
      </trkpt>
      <trkpt lat="47.60377" lon="4.25901">
        <ele>216.91</ele>
        <time>2021-06-01T08:07:10Z</time>
      </trkpt>
      <trkpt lat="47.60423" lon="4.25889">
        <ele>217.88</ele>
        <time>2021-06-01T08:07:21Z</time>
      </trkpt>
      <trkpt lat="47.60487" lon="4.25865">
        <ele>218.36</ele>
        <time>2021-06-01T08:07:36Z</time>
      </trkpt>
      <trkpt lat="47.60491" lon="4.25862">
        <ele>218.36</ele>
        <time>2021-06-01T08:07:37Z</time>
      </trkpt>
      <trkpt lat="47.60495" lon="4.25858">
        <ele>218.36</ele>
        <time>2021-06-01T08:07:38Z</time>
      </trkpt>
      <trkpt lat="47.60515" lon="4.25834">
        <ele>218.36</ele>
        <time>2021-06-01T08:07:44Z</time>
      </trkpt>
      <trkpt lat="47.60519" lon="4.2583">
        <ele>218.36</ele>
        <time>2021-06-01T08:07:45Z</time>
      </trkpt>
      <trkpt lat="47.60522" lon="4.25827">
        <ele>218.36</ele>
        <time>2021-06-01T08:07:46Z</time>
      </trkpt>
      <trkpt lat="47.60577" lon="4.25793">
        <ele>218.36</ele>
        <time>2021-06-01T08:08:00Z</time>
      </trkpt>
      <trkpt lat="47.60619" lon="4.25767">
        <ele>217.88</ele>
        <time>2021-06-01T08:08:11Z</time>
      </trkpt>
      <trkpt lat="47.60621" lon="4.25763">
        <ele>217.88</ele>
        <time>2021-06-01T08:08:12Z</time>
      </trkpt>
      <trkpt lat="47.60621" lon="4.25758">
        <ele>217.88</ele>
        <time>2021-06-01T08:08:13Z</time>
      </trkpt>
      <trkpt lat="47.60621" lon="4.25754">
        <ele>217.88</ele>
        <time>2021-06-01T08:08:14Z</time>
      </trkpt>
      <trkpt lat="47.6062" lon="4.25751">
        <ele>218.36</ele>
        <time>2021-06-01T08:08:15Z</time>
      </trkpt>
      <trkpt lat="47.60619" lon="4.25748">
        <ele>218.36</ele>
        <time>2021-06-01T08:08:16Z</time>
      </trkpt>
      <trkpt lat="47.60618" lon="4.25746">
        <ele>218.36</ele>
        <time>2021-06-01T08:08:17Z</time>
      </trkpt>
      <trkpt lat="47.60601" lon="4.25719">
        <ele>221.72</ele>
        <time>2021-06-01T08:08:32Z</time>
      </trkpt>
      <trkpt lat="47.60591" lon="4.25692">
        <ele>226.53</ele>
        <time>2021-06-01T08:08:48Z</time>
      </trkpt>
      <trkpt lat="47.60596" lon="4.25663">
        <ele>232.3</ele>
        <time>2021-06-01T08:09:04Z</time>
      </trkpt>
      <trkpt lat="47.60609" lon="4.25631">
        <ele>233.74</ele>
        <time>2021-06-01T08:09:21Z</time>
      </trkpt>
      <trkpt lat="47.60626" lon="4.25593">
        <ele>232.78</ele>
        <time>2021-06-01T08:09:34Z</time>
      </trkpt>
      <trkpt lat="47.60656" lon="4.25528">
        <ele>232.78</ele>
        <time>2021-06-01T08:09:50Z</time>
      </trkpt>
      <trkpt lat="47.60679" lon="4.25453">
        <ele>233.26</ele>
        <time>2021-06-01T08:10:09Z</time>
      </trkpt>
      <trkpt lat="47.60682" lon="4.25387">
        <ele>235.18</ele>
        <time>2021-06-01T08:10:25Z</time>
      </trkpt>
      <trkpt lat="47.60675" lon="4.25313">
        <ele>236.62</ele>
        <time>2021-06-01T08:10:41Z</time>
      </trkpt>
      <trkpt lat="47.60672" lon="4.25263">
        <ele>239.99</ele>
        <time>2021-06-01T08:10:54Z</time>
      </trkpt>
      <trkpt lat="47.60668" lon="4.2519">
        <ele>242.39</ele>
        <time>2021-06-01T08:11:12Z</time>
      </trkpt>
      <trkpt lat="47.60665" lon="4.25097">
        <ele>242.39</ele>
        <time>2021-06-01T08:11:33Z</time>
      </trkpt>
      <trkpt lat="47.60664" lon="4.25028">
        <ele>245.27</ele>
        <time>2021-06-01T08:11:50Z</time>
      </trkpt>
      <trkpt lat="47.60661" lon="4.24977">
        <ele>249.12</ele>
        <time>2021-06-01T08:12:06Z</time>
      </trkpt>
      <trkpt lat="47.60642" lon="4.24966">
        <ele>249.6</ele>
        <time>2021-06-01T08:12:22Z</time>
      </trkpt>
      <trkpt lat="47.6062" lon="4.24951">
        <ele>251.04</ele>
        <time>2021-06-01T08:12:40Z</time>
      </trkpt>
      <trkpt lat="47.60595" lon="4.24934">
        <ele>253.44</ele>
        <time>2021-06-01T08:13:00Z</time>
      </trkpt>
      <trkpt lat="47.60574" lon="4.24918">
        <ele>257.29</ele>
        <time>2021-06-01T08:13:17Z</time>
      </trkpt>
      <trkpt lat="47.60556" lon="4.24904">
        <ele>259.69</ele>
        <time>2021-06-01T08:13:34Z</time>
      </trkpt>
      <trkpt lat="47.6054" lon="4.24889">
        <ele>261.62</ele>
        <time>2021-06-01T08:13:50Z</time>
      </trkpt>
      <trkpt lat="47.60528" lon="4.24872">
        <ele>265.94</ele>
        <time>2021-06-01T08:14:04Z</time>
      </trkpt>
      <trkpt lat="47.60527" lon="4.24872">
        <ele>266.42</ele>
        <time>2021-06-01T08:14:05Z</time>
      </trkpt>
      <trkpt lat="47.60512" lon="4.24852">
        <ele>271.71</ele>
        <time>2021-06-01T08:14:23Z</time>
      </trkpt>
      <trkpt lat="47.60507" lon="4.24835">
        <ele>276.52</ele>
        <time>2021-06-01T08:14:36Z</time>
      </trkpt>
      <trkpt lat="47.60501" lon="4.24816">
        <ele>280.84</ele>
        <time>2021-06-01T08:14:50Z</time>
      </trkpt>
      <trkpt lat="47.60501" lon="4.24799">
        <ele>283.73</ele>
        <time>2021-06-01T08:15:00Z</time>
      </trkpt>
      <trkpt lat="47.60499" lon="4.24779">
        <ele>285.17</ele>
        <time>2021-06-01T08:15:11Z</time>
      </trkpt>
      <trkpt lat="47.60495" lon="4.24765">
        <ele>289.97</ele>
        <time>2021-06-01T08:15:22Z</time>
      </trkpt>
      <trkpt lat="47.60487" lon="4.24745">
        <ele>297.18</ele>
        <time>2021-06-01T08:15:37Z</time>
      </trkpt>
      <trkpt lat="47.60487" lon="4.2474">
        <ele>298.63</ele>
        <time>2021-06-01T08:15:40Z</time>
      </trkpt>
      <trkpt lat="47.60486" lon="4.24724">
        <ele>304.39</ele>
        <time>2021-06-01T08:15:51Z</time>
      </trkpt>
      <trkpt lat="47.60486" lon="4.24719">
        <ele>305.84</ele>
        <time>2021-06-01T08:15:54Z</time>
      </trkpt>
      <trkpt lat="47.60486" lon="4.24717">
        <ele>306.8</ele>
        <time>2021-06-01T08:15:55Z</time>
      </trkpt>
      <trkpt lat="47.60483" lon="4.24693">
        <ele>308.24</ele>
        <time>2021-06-01T08:16:06Z</time>
      </trkpt>
      <trkpt lat="47.60482" lon="4.24691">
        <ele>308.24</ele>
        <time>2021-06-01T08:16:07Z</time>
      </trkpt>
      <trkpt lat="47.60482" lon="4.24688">
        <ele>307.76</ele>
        <time>2021-06-01T08:16:08Z</time>
      </trkpt>
      <trkpt lat="47.6048" lon="4.24679">
        <ele>307.28</ele>
        <time>2021-06-01T08:16:12Z</time>
      </trkpt>
      <trkpt lat="47.6048" lon="4.24676">
        <ele>307.28</ele>
        <time>2021-06-01T08:16:13Z</time>
      </trkpt>
      <trkpt lat="47.6048" lon="4.24674">
        <ele>307.76</ele>
        <time>2021-06-01T08:16:14Z</time>
      </trkpt>
      <trkpt lat="47.60471" lon="4.24631">
        <ele>307.28</ele>
        <time>2021-06-01T08:16:32Z</time>
      </trkpt>
      <trkpt lat="47.60469" lon="4.24614">
        <ele>306.8</ele>
        <time>2021-06-01T08:16:38Z</time>
      </trkpt>
      <trkpt lat="47.6047" lon="4.24611">
        <ele>306.8</ele>
        <time>2021-06-01T08:16:39Z</time>
      </trkpt>
      <trkpt lat="47.6047" lon="4.24608">
        <ele>306.8</ele>
        <time>2021-06-01T08:16:40Z</time>
      </trkpt>
      <trkpt lat="47.60469" lon="4.24604">
        <ele>306.32</ele>
        <time>2021-06-01T08:16:41Z</time>
      </trkpt>
      <trkpt lat="47.60467" lon="4.246">
        <ele>305.84</ele>
        <time>2021-06-01T08:16:42Z</time>
      </trkpt>
      <trkpt lat="47.60466" lon="4.24596">
        <ele>304.88</ele>
        <time>2021-06-01T08:16:43Z</time>
      </trkpt>
      <trkpt lat="47.60465" lon="4.24592">
        <ele>304.39</ele>
        <time>2021-06-01T08:16:44Z</time>
      </trkpt>
      <trkpt lat="47.60464" lon="4.24588">
        <ele>304.39</ele>
        <time>2021-06-01T08:16:45Z</time>
      </trkpt>
      <trkpt lat="47.60464" lon="4.24584">
        <ele>303.91</ele>
        <time>2021-06-01T08:16:46Z</time>
      </trkpt>
      <trkpt lat="47.60463" lon="4.24581">
        <ele>303.43</ele>
        <time>2021-06-01T08:16:47Z</time>
      </trkpt>
      <trkpt lat="47.60463" lon="4.24577">
        <ele>303.43</ele>
        <time>2021-06-01T08:16:48Z</time>
      </trkpt>
      <trkpt lat="47.60456" lon="4.24537">
        <ele>301.99</ele>
        <time>2021-06-01T08:17:02Z</time>
      </trkpt>
      <trkpt lat="47.60453" lon="4.24523">
        <ele>301.99</ele>
        <time>2021-06-01T08:17:07Z</time>
      </trkpt>
      <trkpt lat="47.60452" lon="4.24521">
        <ele>301.99</ele>
        <time>2021-06-01T08:17:08Z</time>
      </trkpt>
      <trkpt lat="47.60452" lon="4.24519">
        <ele>301.99</ele>
        <time>2021-06-01T08:17:09Z</time>
      </trkpt>
      <trkpt lat="47.60451" lon="4.24517">
        <ele>301.99</ele>
        <time>2021-06-01T08:17:10Z</time>
      </trkpt>
      <trkpt lat="47.6045" lon="4.24514">
        <ele>301.99</ele>
        <time>2021-06-01T08:17:11Z</time>
      </trkpt>
      <trkpt lat="47.60436" lon="4.24478">
        <ele>303.91</ele>
        <time>2021-06-01T08:17:27Z</time>
      </trkpt>
      <trkpt lat="47.60431" lon="4.24466">
        <ele>304.39</ele>
        <time>2021-06-01T08:17:35Z</time>
      </trkpt>
      <trkpt lat="47.6043" lon="4.24464">
        <ele>303.91</ele>
        <time>2021-06-01T08:17:36Z</time>
      </trkpt>
      <trkpt lat="47.60429" lon="4.24462">
        <ele>303.91</ele>
        <time>2021-06-01T08:17:37Z</time>
      </trkpt>
      <trkpt lat="47.60428" lon="4.2446">
        <ele>303.91</ele>
        <time>2021-06-01T08:17:38Z</time>
      </trkpt>
      <trkpt lat="47.60426" lon="4.24457">
        <ele>303.91</ele>
        <time>2021-06-01T08:17:39Z</time>
      </trkpt>
      <trkpt lat="47.60425" lon="4.24455">
        <ele>303.43</ele>
        <time>2021-06-01T08:17:40Z</time>
      </trkpt>
      <trkpt lat="47.60425" lon="4.24452">
        <ele>303.43</ele>
        <time>2021-06-01T08:17:41Z</time>
      </trkpt>
      <trkpt lat="47.6041" lon="4.24418">
        <ele>303.91</ele>
        <time>2021-06-01T08:17:59Z</time>
      </trkpt>
      <trkpt lat="47.60409" lon="4.24415">
        <ele>303.91</ele>
        <time>2021-06-01T08:18:01Z</time>
      </trkpt>
      <trkpt lat="47.60404" lon="4.24408">
        <ele>303.91</ele>
        <time>2021-06-01T08:18:07Z</time>
      </trkpt>
      <trkpt lat="47.60403" lon="4.24407">
        <ele>303.91</ele>
        <time>2021-06-01T08:18:08Z</time>
      </trkpt>
      <trkpt lat="47.60402" lon="4.24405">
        <ele>303.91</ele>
        <time>2021-06-01T08:18:09Z</time>
      </trkpt>
      <trkpt lat="47.604" lon="4.24401">
        <ele>303.43</ele>
        <time>2021-06-01T08:18:11Z</time>
      </trkpt>
      <trkpt lat="47.60399" lon="4.244">
        <ele>303.43</ele>
        <time>2021-06-01T08:18:12Z</time>
      </trkpt>
      <trkpt lat="47.60385" lon="4.24379">
        <ele>302.95</ele>
        <time>2021-06-01T08:18:25Z</time>
      </trkpt>
      <trkpt lat="47.6035" lon="4.24345">
        <ele>302.95</ele>
        <time>2021-06-01T08:18:44Z</time>
      </trkpt>
      <trkpt lat="47.60315" lon="4.2432">
        <ele>303.43</ele>
        <time>2021-06-01T08:19:03Z</time>
      </trkpt>
      <trkpt lat="47.60273" lon="4.24303">
        <ele>303.91</ele>
        <time>2021-06-01T08:19:23Z</time>
      </trkpt>
      <trkpt lat="47.60218" lon="4.24297">
        <ele>305.36</ele>
        <time>2021-06-01T08:19:47Z</time>
      </trkpt>
      <trkpt lat="47.60178" lon="4.2428">
        <ele>308.24</ele>
        <time>2021-06-01T08:20:06Z</time>
      </trkpt>
      <trkpt lat="47.60141" lon="4.24245">
        <ele>311.6</ele>
        <time>2021-06-01T08:20:29Z</time>
      </trkpt>
      <trkpt lat="47.60106" lon="4.242">
        <ele>316.41</ele>
        <time>2021-06-01T08:20:54Z</time>
      </trkpt>
      <trkpt lat="47.60084" lon="4.24169">
        <ele>319.78</ele>
        <time>2021-06-01T08:21:15Z</time>
      </trkpt>
      <trkpt lat="47.60059" lon="4.24135">
        <ele>324.58</ele>
        <time>2021-06-01T08:21:37Z</time>
      </trkpt>
      <trkpt lat="47.60033" lon="4.24105">
        <ele>328.43</ele>
        <time>2021-06-01T08:21:59Z</time>
      </trkpt>
      <trkpt lat="47.6001" lon="4.24084">
        <ele>329.87</ele>
        <time>2021-06-01T08:22:16Z</time>
      </trkpt>
      <trkpt lat="47.5998" lon="4.24064">
        <ele>332.75</ele>
        <time>2021-06-01T08:22:36Z</time>
      </trkpt>
      <trkpt lat="47.59946" lon="4.24038">
        <ele>335.16</ele>
        <time>2021-06-01T08:22:58Z</time>
      </trkpt>
      <trkpt lat="47.59909" lon="4.24019">
        <ele>337.08</ele>
        <time>2021-06-01T08:23:20Z</time>
      </trkpt>
      <trkpt lat="47.59868" lon="4.24007">
        <ele>339.48</ele>
        <time>2021-06-01T08:23:43Z</time>
      </trkpt>
      <trkpt lat="47.59827" lon="4.24">
        <ele>340.44</ele>
        <time>2021-06-01T08:24:00Z</time>
      </trkpt>
      <trkpt lat="47.59774" lon="4.23989">
        <ele>340.92</ele>
        <time>2021-06-01T08:24:21Z</time>
      </trkpt>
      <trkpt lat="47.59719" lon="4.23978">
        <ele>342.85</ele>
        <time>2021-06-01T08:24:43Z</time>
      </trkpt>
      <trkpt lat="47.59656" lon="4.23964">
        <ele>342.85</ele>
        <time>2021-06-01T08:25:04Z</time>
      </trkpt>
      <trkpt lat="47.5959" lon="4.2395">
        <ele>343.33</ele>
        <time>2021-06-01T08:25:26Z</time>
      </trkpt>
      <trkpt lat="47.59554" lon="4.2394">
        <ele>346.21</ele>
        <time>2021-06-01T08:25:42Z</time>
      </trkpt>
      <trkpt lat="47.59544" lon="4.23902">
        <ele>347.65</ele>
        <time>2021-06-01T08:25:55Z</time>
      </trkpt>
      <trkpt lat="47.59543" lon="4.23854">
        <ele>349.1</ele>
        <time>2021-06-01T08:26:10Z</time>
      </trkpt>
      <trkpt lat="47.59543" lon="4.23796">
        <ele>351.98</ele>
        <time>2021-06-01T08:26:28Z</time>
      </trkpt>
      <trkpt lat="47.5954" lon="4.23735">
        <ele>353.42</ele>
        <time>2021-06-01T08:26:46Z</time>
      </trkpt>
      <trkpt lat="47.59509" lon="4.23672">
        <ele>354.86</ele>
        <time>2021-06-01T08:27:02Z</time>
      </trkpt>
      <trkpt lat="47.59468" lon="4.23592">
        <ele>354.38</ele>
        <time>2021-06-01T08:27:20Z</time>
      </trkpt>
      <trkpt lat="47.594" lon="4.23492">
        <ele>351.5</ele>
        <time>2021-06-01T08:27:40Z</time>
      </trkpt>
      <trkpt lat="47.59355" lon="4.23407">
        <ele>350.54</ele>
        <time>2021-06-01T08:27:56Z</time>
      </trkpt>
      <trkpt lat="47.59316" lon="4.23307">
        <ele>350.06</ele>
        <time>2021-06-01T08:28:14Z</time>
      </trkpt>
      <trkpt lat="47.593" lon="4.23288">
        <ele>349.58</ele>
        <time>2021-06-01T08:28:19Z</time>
      </trkpt>
      <trkpt lat="47.59209" lon="4.23222">
        <ele>346.69</ele>
        <time>2021-06-01T08:28:40Z</time>
      </trkpt>
      <trkpt lat="47.59111" lon="4.23145">
        <ele>343.33</ele>
        <time>2021-06-01T08:29:01Z</time>
      </trkpt>
      <trkpt lat="47.59069" lon="4.23113">
        <ele>342.85</ele>
        <time>2021-06-01T08:29:15Z</time>
      </trkpt>
      <trkpt lat="47.59014" lon="4.23068">
        <ele>343.33</ele>
        <time>2021-06-01T08:29:33Z</time>
      </trkpt>
      <trkpt lat="47.58965" lon="4.23029">
        <ele>344.77</ele>
        <time>2021-06-01T08:29:52Z</time>
      </trkpt>
      <trkpt lat="47.58923" lon="4.22959">
        <ele>345.73</ele>
        <time>2021-06-01T08:30:13Z</time>
      </trkpt>
      <trkpt lat="47.58889" lon="4.22895">
        <ele>347.17</ele>
        <time>2021-06-01T08:30:31Z</time>
      </trkpt>
      <trkpt lat="47.58848" lon="4.22809">
        <ele>348.62</ele>
        <time>2021-06-01T08:30:54Z</time>
      </trkpt>
      <trkpt lat="47.58805" lon="4.22717">
        <ele>349.1</ele>
        <time>2021-06-01T08:31:16Z</time>
      </trkpt>
      <trkpt lat="47.58764" lon="4.22636">
        <ele>348.13</ele>
        <time>2021-06-01T08:31:35Z</time>
      </trkpt>
      <trkpt lat="47.58716" lon="4.2261">
        <ele>348.13</ele>
        <time>2021-06-01T08:31:51Z</time>
      </trkpt>
      <trkpt lat="47.58661" lon="4.22597">
        <ele>346.21</ele>
        <time>2021-06-01T08:32:07Z</time>
      </trkpt>
      <trkpt lat="47.58591" lon="4.22586">
        <ele>343.33</ele>
        <time>2021-06-01T08:32:24Z</time>
      </trkpt>
      <trkpt lat="47.58508" lon="4.22577">
        <ele>340.44</ele>
        <time>2021-06-01T08:32:45Z</time>
      </trkpt>
      <trkpt lat="47.5842" lon="4.22593">
        <ele>336.12</ele>
        <time>2021-06-01T08:33:01Z</time>
      </trkpt>
      <trkpt lat="47.58323" lon="4.22635">
        <ele>334.2</ele>
        <time>2021-06-01T08:33:20Z</time>
      </trkpt>
      <trkpt lat="47.5824" lon="4.22672">
        <ele>332.75</ele>
        <time>2021-06-01T08:33:37Z</time>
      </trkpt>
      <trkpt lat="47.58135" lon="4.22711">
        <ele>331.31</ele>
        <time>2021-06-01T08:33:58Z</time>
      </trkpt>
      <trkpt lat="47.58031" lon="4.22749">
        <ele>330.35</ele>
        <time>2021-06-01T08:34:19Z</time>
      </trkpt>
      <trkpt lat="47.5795" lon="4.22779">
        <ele>329.87</ele>
        <time>2021-06-01T08:34:36Z</time>
      </trkpt>
      <trkpt lat="47.57904" lon="4.2279">
        <ele>330.35</ele>
        <time>2021-06-01T08:34:51Z</time>
      </trkpt>
      <trkpt lat="47.57884" lon="4.2281">
        <ele>331.79</ele>
        <time>2021-06-01T08:35:02Z</time>
      </trkpt>
      <trkpt lat="47.57888" lon="4.22809">
        <ele>331.79</ele>
        <time>2021-06-01T08:35:05Z</time>
      </trkpt>
      <trkpt lat="47.5789" lon="4.22805">
        <ele>331.79</ele>
        <time>2021-06-01T08:35:06Z</time>
      </trkpt>
      <trkpt lat="47.57892" lon="4.22802">
        <ele>331.31</ele>
        <time>2021-06-01T08:35:07Z</time>
      </trkpt>
      <trkpt lat="47.57928" lon="4.2273">
        <ele>328.43</ele>
        <time>2021-06-01T08:35:20Z</time>
      </trkpt>
      <trkpt lat="47.57972" lon="4.22549">
        <ele>325.06</ele>
        <time>2021-06-01T08:35:39Z</time>
      </trkpt>
      <trkpt lat="47.58024" lon="4.22335">
        <ele>323.62</ele>
        <time>2021-06-01T08:36:01Z</time>
      </trkpt>
      <trkpt lat="47.58046" lon="4.22178">
        <ele>323.62</ele>
        <time>2021-06-01T08:36:17Z</time>
      </trkpt>
      <trkpt lat="47.5807" lon="4.21982">
        <ele>323.62</ele>
        <time>2021-06-01T08:36:37Z</time>
      </trkpt>
      <trkpt lat="47.58096" lon="4.21812">
        <ele>323.62</ele>
        <time>2021-06-01T08:36:55Z</time>
      </trkpt>
      <trkpt lat="47.58115" lon="4.21661">
        <ele>322.66</ele>
        <time>2021-06-01T08:37:12Z</time>
      </trkpt>
      <trkpt lat="47.58106" lon="4.21538">
        <ele>319.78</ele>
        <time>2021-06-01T08:37:24Z</time>
      </trkpt>
      <trkpt lat="47.58103" lon="4.21527">
        <ele>319.78</ele>
        <time>2021-06-01T08:37:25Z</time>
      </trkpt>
      <trkpt lat="47.58079" lon="4.21426">
        <ele>319.78</ele>
        <time>2021-06-01T08:37:36Z</time>
      </trkpt>
      <trkpt lat="47.5808" lon="4.21409">
        <ele>319.78</ele>
        <time>2021-06-01T08:37:38Z</time>
      </trkpt>
      <trkpt lat="47.58081" lon="4.214">
        <ele>319.78</ele>
        <time>2021-06-01T08:37:39Z</time>
      </trkpt>
      <trkpt lat="47.58095" lon="4.21262">
        <ele>318.33</ele>
        <time>2021-06-01T08:37:55Z</time>
      </trkpt>
      <trkpt lat="47.58099" lon="4.21165">
        <ele>319.78</ele>
        <time>2021-06-01T08:38:09Z</time>
      </trkpt>
      <trkpt lat="47.58105" lon="4.21123">
        <ele>321.7</ele>
        <time>2021-06-01T08:38:20Z</time>
      </trkpt>
      <trkpt lat="47.58104" lon="4.21121">
        <ele>321.7</ele>
        <time>2021-06-01T08:38:21Z</time>
      </trkpt>
      <trkpt lat="47.58101" lon="4.21119">
        <ele>321.7</ele>
        <time>2021-06-01T08:38:22Z</time>
      </trkpt>
      <trkpt lat="47.58099" lon="4.21119">
        <ele>322.18</ele>
        <time>2021-06-01T08:38:23Z</time>
      </trkpt>
      <trkpt lat="47.58096" lon="4.21119">
        <ele>322.18</ele>
        <time>2021-06-01T08:38:24Z</time>
      </trkpt>
      <trkpt lat="47.58093" lon="4.21119">
        <ele>322.18</ele>
        <time>2021-06-01T08:38:25Z</time>
      </trkpt>
      <trkpt lat="47.58091" lon="4.2112">
        <ele>322.66</ele>
        <time>2021-06-01T08:38:26Z</time>
      </trkpt>
      <trkpt lat="47.58088" lon="4.21121">
        <ele>322.66</ele>
        <time>2021-06-01T08:38:27Z</time>
      </trkpt>
      <trkpt lat="47.58085" lon="4.21121">
        <ele>322.66</ele>
        <time>2021-06-01T08:38:28Z</time>
      </trkpt>
      <trkpt lat="47.58082" lon="4.21121">
        <ele>322.66</ele>
        <time>2021-06-01T08:38:29Z</time>
      </trkpt>
      <trkpt lat="47.58034" lon="4.21123">
        <ele>324.1</ele>
        <time>2021-06-01T08:38:44Z</time>
      </trkpt>
      <trkpt lat="47.57981" lon="4.21111">
        <ele>326.99</ele>
        <time>2021-06-01T08:39:01Z</time>
      </trkpt>
      <trkpt lat="47.57911" lon="4.21084">
        <ele>327.95</ele>
        <time>2021-06-01T08:39:21Z</time>
      </trkpt>
      <trkpt lat="47.57836" lon="4.21071">
        <ele>327.47</ele>
        <time>2021-06-01T08:39:38Z</time>
      </trkpt>
      <trkpt lat="47.57738" lon="4.21071">
        <ele>328.91</ele>
        <time>2021-06-01T08:39:59Z</time>
      </trkpt>
      <trkpt lat="47.57675" lon="4.21071">
        <ele>329.87</ele>
        <time>2021-06-01T08:40:15Z</time>
      </trkpt>
      <trkpt lat="47.576" lon="4.21068">
        <ele>331.31</ele>
        <time>2021-06-01T08:40:36Z</time>
      </trkpt>
      <trkpt lat="47.57539" lon="4.21042">
        <ele>332.27</ele>
        <time>2021-06-01T08:40:54Z</time>
      </trkpt>
      <trkpt lat="47.57473" lon="4.21007">
        <ele>333.23</ele>
        <time>2021-06-01T08:41:14Z</time>
      </trkpt>
      <trkpt lat="47.57404" lon="4.2099">
        <ele>333.71</ele>
        <time>2021-06-01T08:41:33Z</time>
      </trkpt>
      <trkpt lat="47.57322" lon="4.21012">
        <ele>334.2</ele>
        <time>2021-06-01T08:41:52Z</time>
      </trkpt>
      <trkpt lat="47.57237" lon="4.21047">
        <ele>334.68</ele>
        <time>2021-06-01T08:42:11Z</time>
      </trkpt>
      <trkpt lat="47.5716" lon="4.21053">
        <ele>335.16</ele>
        <time>2021-06-01T08:42:28Z</time>
      </trkpt>
      <trkpt lat="47.57069" lon="4.21038">
        <ele>335.16</ele>
        <time>2021-06-01T08:42:48Z</time>
      </trkpt>
      <trkpt lat="47.57001" lon="4.21056">
        <ele>335.64</ele>
        <time>2021-06-01T08:43:04Z</time>
      </trkpt>
      <trkpt lat="47.56985" lon="4.21062">
        <ele>336.6</ele>
        <time>2021-06-01T08:43:10Z</time>
      </trkpt>
      <trkpt lat="47.56983" lon="4.21061">
        <ele>336.6</ele>
        <time>2021-06-01T08:43:11Z</time>
      </trkpt>
      <trkpt lat="47.56982" lon="4.21061">
        <ele>337.08</ele>
        <time>2021-06-01T08:43:12Z</time>
      </trkpt>
      <trkpt lat="47.5698" lon="4.21059">
        <ele>336.12</ele>
        <time>2021-06-01T08:43:22Z</time>
      </trkpt>
      <trkpt lat="47.5698" lon="4.2106">
        <ele>336.12</ele>
        <time>2021-06-01T08:43:36Z</time>
      </trkpt>
      <trkpt lat="47.56979" lon="4.2106">
        <ele>337.08</ele>
        <time>2021-06-01T08:43:59Z</time>
      </trkpt>
      <trkpt lat="47.56979" lon="4.21063">
        <ele>336.12</ele>
        <time>2021-06-01T08:44:21Z</time>
      </trkpt>
      <trkpt lat="47.56978" lon="4.21066">
        <ele>334.68</ele>
        <time>2021-06-01T08:44:33Z</time>
      </trkpt>
      <trkpt lat="47.5698" lon="4.21066">
        <ele>335.64</ele>
        <time>2021-06-01T08:44:49Z</time>
      </trkpt>
      <trkpt lat="47.56977" lon="4.21066">
        <ele>336.6</ele>
        <time>2021-06-01T08:45:17Z</time>
      </trkpt>
      <trkpt lat="47.56979" lon="4.21067">
        <ele>338.04</ele>
        <time>2021-06-01T08:45:46Z</time>
      </trkpt>
      <trkpt lat="47.56979" lon="4.21066">
        <ele>338.04</ele>
        <time>2021-06-01T08:46:21Z</time>
      </trkpt>
      <trkpt lat="47.56979" lon="4.21066">
        <ele>339.48</ele>
        <time>2021-06-01T08:46:57Z</time>
      </trkpt>
      <trkpt lat="47.56978" lon="4.21066">
        <ele>336.6</ele>
        <time>2021-06-01T08:47:24Z</time>
      </trkpt>
      <trkpt lat="47.56977" lon="4.21065">
        <ele>337.08</ele>
        <time>2021-06-01T08:47:59Z</time>
      </trkpt>
      <trkpt lat="47.56978" lon="4.21069">
        <ele>335.16</ele>
        <time>2021-06-01T08:48:45Z</time>
      </trkpt>
      <trkpt lat="47.56978" lon="4.2107">
        <ele>338.04</ele>
        <time>2021-06-01T08:49:32Z</time>
      </trkpt>
      <trkpt lat="47.56978" lon="4.21072">
        <ele>337.56</ele>
        <time>2021-06-01T08:50:20Z</time>
      </trkpt>
      <trkpt lat="47.56978" lon="4.2107">
        <ele>335.64</ele>
        <time>2021-06-01T08:50:56Z</time>
      </trkpt>
      <trkpt lat="47.56977" lon="4.21069">
        <ele>336.6</ele>
        <time>2021-06-01T08:51:12Z</time>
      </trkpt>
      <trkpt lat="47.56978" lon="4.2107">
        <ele>337.56</ele>
        <time>2021-06-01T08:51:49Z</time>
      </trkpt>
      <trkpt lat="47.56979" lon="4.2107">
        <ele>338.04</ele>
        <time>2021-06-01T08:52:22Z</time>
      </trkpt>
      <trkpt lat="47.5698" lon="4.21069">
        <ele>336.6</ele>
        <time>2021-06-01T08:52:34Z</time>
      </trkpt>
      <trkpt lat="47.5698" lon="4.2107">
        <ele>337.08</ele>
        <time>2021-06-01T08:52:54Z</time>
      </trkpt>
      <trkpt lat="47.56977" lon="4.2107">
        <ele>336.6</ele>
        <time>2021-06-01T08:53:11Z</time>
      </trkpt>
      <trkpt lat="47.56972" lon="4.21072">
        <ele>334.68</ele>
        <time>2021-06-01T08:53:33Z</time>
      </trkpt>
      <trkpt lat="47.56951" lon="4.21076">
        <ele>336.6</ele>
        <time>2021-06-01T08:53:45Z</time>
      </trkpt>
      <trkpt lat="47.56917" lon="4.21089">
        <ele>335.64</ele>
        <time>2021-06-01T08:53:57Z</time>
      </trkpt>
      <trkpt lat="47.5686" lon="4.21112">
        <ele>333.23</ele>
        <time>2021-06-01T08:54:11Z</time>
      </trkpt>
      <trkpt lat="47.56845" lon="4.21116">
        <ele>332.27</ele>
        <time>2021-06-01T08:54:14Z</time>
      </trkpt>
      <trkpt lat="47.56828" lon="4.21122">
        <ele>331.31</ele>
        <time>2021-06-01T08:54:17Z</time>
      </trkpt>
      <trkpt lat="47.56822" lon="4.21122">
        <ele>331.31</ele>
        <time>2021-06-01T08:54:18Z</time>
      </trkpt>
      <trkpt lat="47.56709" lon="4.21118">
        <ele>323.62</ele>
        <time>2021-06-01T08:54:33Z</time>
      </trkpt>
      <trkpt lat="47.56571" lon="4.2111">
        <ele>315.93</ele>
        <time>2021-06-01T08:54:48Z</time>
      </trkpt>
      <trkpt lat="47.56551" lon="4.21115">
        <ele>314.49</ele>
        <time>2021-06-01T08:54:50Z</time>
      </trkpt>
      <trkpt lat="47.56464" lon="4.21184">
        <ele>306.8</ele>
        <time>2021-06-01T08:54:59Z</time>
      </trkpt>
      <trkpt lat="47.56456" lon="4.21196">
        <ele>305.84</ele>
        <time>2021-06-01T08:55:00Z</time>
      </trkpt>
      <trkpt lat="47.56449" lon="4.2121">
        <ele>305.36</ele>
        <time>2021-06-01T08:55:01Z</time>
      </trkpt>
      <trkpt lat="47.56444" lon="4.21223">
        <ele>304.88</ele>
        <time>2021-06-01T08:55:02Z</time>
      </trkpt>
      <trkpt lat="47.5644" lon="4.21238">
        <ele>304.39</ele>
        <time>2021-06-01T08:55:03Z</time>
      </trkpt>
      <trkpt lat="47.56438" lon="4.21254">
        <ele>303.91</ele>
        <time>2021-06-01T08:55:04Z</time>
      </trkpt>
      <trkpt lat="47.56437" lon="4.21269">
        <ele>302.95</ele>
        <time>2021-06-01T08:55:05Z</time>
      </trkpt>
      <trkpt lat="47.56424" lon="4.21371">
        <ele>295.74</ele>
        <time>2021-06-01T08:55:11Z</time>
      </trkpt>
      <trkpt lat="47.56419" lon="4.21387">
        <ele>294.3</ele>
        <time>2021-06-01T08:55:12Z</time>
      </trkpt>
      <trkpt lat="47.56413" lon="4.21404">
        <ele>292.86</ele>
        <time>2021-06-01T08:55:13Z</time>
      </trkpt>
      <trkpt lat="47.56335" lon="4.21592">
        <ele>278.92</ele>
        <time>2021-06-01T08:55:25Z</time>
      </trkpt>
      <trkpt lat="47.56285" lon="4.21715">
        <ele>275.56</ele>
        <time>2021-06-01T08:55:35Z</time>
      </trkpt>
      <trkpt lat="47.56274" lon="4.21737">
        <ele>274.59</ele>
        <time>2021-06-01T08:55:38Z</time>
      </trkpt>
      <trkpt lat="47.56267" lon="4.21747">
        <ele>274.59</ele>
        <time>2021-06-01T08:55:40Z</time>
      </trkpt>
      <trkpt lat="47.56265" lon="4.21753">
        <ele>274.59</ele>
        <time>2021-06-01T08:55:41Z</time>
      </trkpt>
      <trkpt lat="47.56252" lon="4.21796">
        <ele>274.11</ele>
        <time>2021-06-01T08:55:48Z</time>
      </trkpt>
      <trkpt lat="47.56199" lon="4.21896">
        <ele>273.63</ele>
        <time>2021-06-01T08:56:06Z</time>
      </trkpt>
      <trkpt lat="47.5615" lon="4.21953">
        <ele>278.44</ele>
        <time>2021-06-01T08:56:21Z</time>
      </trkpt>
      <trkpt lat="47.56144" lon="4.21968">
        <ele>278.44</ele>
        <time>2021-06-01T08:56:24Z</time>
      </trkpt>
      <trkpt lat="47.56115" lon="4.22025">
        <ele>278.92</ele>
        <time>2021-06-01T08:56:36Z</time>
      </trkpt>
      <trkpt lat="47.56081" lon="4.22084">
        <ele>277</ele>
        <time>2021-06-01T08:56:51Z</time>
      </trkpt>
      <trkpt lat="47.56052" lon="4.22127">
        <ele>277</ele>
        <time>2021-06-01T08:57:05Z</time>
      </trkpt>
      <trkpt lat="47.5605" lon="4.22129">
        <ele>277</ele>
        <time>2021-06-01T08:57:06Z</time>
      </trkpt>
      <trkpt lat="47.56049" lon="4.22131">
        <ele>277.48</ele>
        <time>2021-06-01T08:57:07Z</time>
      </trkpt>
      <trkpt lat="47.56017" lon="4.2217">
        <ele>277.96</ele>
        <time>2021-06-01T08:57:21Z</time>
      </trkpt>
      <trkpt lat="47.55995" lon="4.22186">
        <ele>276.04</ele>
        <time>2021-06-01T08:57:27Z</time>
      </trkpt>
      <trkpt lat="47.55991" lon="4.2219">
        <ele>275.07</ele>
        <time>2021-06-01T08:57:28Z</time>
      </trkpt>
      <trkpt lat="47.55965" lon="4.2221">
        <ele>268.83</ele>
        <time>2021-06-01T08:57:34Z</time>
      </trkpt>
      <trkpt lat="47.55958" lon="4.22217">
        <ele>267.38</ele>
        <time>2021-06-01T08:57:36Z</time>
      </trkpt>
      <trkpt lat="47.55921" lon="4.22265">
        <ele>258.73</ele>
        <time>2021-06-01T08:57:46Z</time>
      </trkpt>
      <trkpt lat="47.55917" lon="4.22268">
        <ele>258.25</ele>
        <time>2021-06-01T08:57:47Z</time>
      </trkpt>
      <trkpt lat="47.55914" lon="4.2227">
        <ele>257.77</ele>
        <time>2021-06-01T08:57:48Z</time>
      </trkpt>
      <trkpt lat="47.5591" lon="4.22271">
        <ele>257.29</ele>
        <time>2021-06-01T08:57:49Z</time>
      </trkpt>
      <trkpt lat="47.55906" lon="4.22271">
        <ele>257.29</ele>
        <time>2021-06-01T08:57:50Z</time>
      </trkpt>
      <trkpt lat="47.55902" lon="4.22268">
        <ele>256.81</ele>
        <time>2021-06-01T08:57:51Z</time>
      </trkpt>
      <trkpt lat="47.55898" lon="4.22264">
        <ele>256.33</ele>
        <time>2021-06-01T08:57:52Z</time>
      </trkpt>
      <trkpt lat="47.55895" lon="4.22258">
        <ele>255.85</ele>
        <time>2021-06-01T08:57:53Z</time>
      </trkpt>
      <trkpt lat="47.55891" lon="4.22252">
        <ele>255.37</ele>
        <time>2021-06-01T08:57:54Z</time>
      </trkpt>
      <trkpt lat="47.55888" lon="4.22245">
        <ele>254.89</ele>
        <time>2021-06-01T08:57:55Z</time>
      </trkpt>
      <trkpt lat="47.55881" lon="4.22231">
        <ele>254.89</ele>
        <time>2021-06-01T08:57:57Z</time>
      </trkpt>
      <trkpt lat="47.55861" lon="4.22188">
        <ele>252.96</ele>
        <time>2021-06-01T08:58:03Z</time>
      </trkpt>
      <trkpt lat="47.55857" lon="4.22182">
        <ele>252.96</ele>
        <time>2021-06-01T08:58:04Z</time>
      </trkpt>
      <trkpt lat="47.55852" lon="4.22178">
        <ele>252.48</ele>
        <time>2021-06-01T08:58:05Z</time>
      </trkpt>
      <trkpt lat="47.55847" lon="4.22174">
        <ele>252</ele>
        <time>2021-06-01T08:58:06Z</time>
      </trkpt>
      <trkpt lat="47.55841" lon="4.22173">
        <ele>252</ele>
        <time>2021-06-01T08:58:07Z</time>
      </trkpt>
      <trkpt lat="47.55834" lon="4.22173">
        <ele>251.52</ele>
        <time>2021-06-01T08:58:08Z</time>
      </trkpt>
      <trkpt lat="47.55827" lon="4.22174">
        <ele>251.04</ele>
        <time>2021-06-01T08:58:09Z</time>
      </trkpt>
      <trkpt lat="47.5582" lon="4.22176">
        <ele>251.04</ele>
        <time>2021-06-01T08:58:10Z</time>
      </trkpt>
      <trkpt lat="47.55748" lon="4.22196">
        <ele>241.91</ele>
        <time>2021-06-01T08:58:21Z</time>
      </trkpt>
      <trkpt lat="47.55717" lon="4.22205">
        <ele>236.14</ele>
        <time>2021-06-01T08:58:34Z</time>
      </trkpt>
      <trkpt lat="47.55668" lon="4.2222">
        <ele>232.3</ele>
        <time>2021-06-01T08:58:48Z</time>
      </trkpt>
      <trkpt lat="47.55634" lon="4.22231">
        <ele>230.85</ele>
        <time>2021-06-01T08:58:56Z</time>
      </trkpt>
      <trkpt lat="47.55633" lon="4.22233">
        <ele>230.85</ele>
        <time>2021-06-01T08:58:57Z</time>
      </trkpt>
      <trkpt lat="47.55634" lon="4.22234">
        <ele>230.85</ele>
        <time>2021-06-01T08:58:58Z</time>
      </trkpt>
      <trkpt lat="47.55635" lon="4.22234">
        <ele>231.33</ele>
        <time>2021-06-01T08:58:59Z</time>
      </trkpt>
      <trkpt lat="47.55636" lon="4.22233">
        <ele>231.33</ele>
        <time>2021-06-01T08:59:00Z</time>
      </trkpt>
      <trkpt lat="47.55637" lon="4.22233">
        <ele>231.81</ele>
        <time>2021-06-01T08:59:01Z</time>
      </trkpt>
      <trkpt lat="47.55668" lon="4.22223">
        <ele>233.26</ele>
        <time>2021-06-01T08:59:10Z</time>
      </trkpt>
      <trkpt lat="47.5574" lon="4.22199">
        <ele>235.66</ele>
        <time>2021-06-01T08:59:29Z</time>
      </trkpt>
      <trkpt lat="47.55798" lon="4.2218">
        <ele>238.54</ele>
        <time>2021-06-01T08:59:48Z</time>
      </trkpt>
      <trkpt lat="47.55838" lon="4.22168">
        <ele>241.91</ele>
        <time>2021-06-01T09:00:05Z</time>
      </trkpt>
      <trkpt lat="47.5584" lon="4.22166">
        <ele>241.91</ele>
        <time>2021-06-01T09:00:06Z</time>
      </trkpt>
      <trkpt lat="47.55841" lon="4.22163">
        <ele>242.39</ele>
        <time>2021-06-01T09:00:07Z</time>
      </trkpt>
      <trkpt lat="47.55842" lon="4.2216">
        <ele>242.39</ele>
        <time>2021-06-01T09:00:08Z</time>
      </trkpt>
      <trkpt lat="47.55841" lon="4.22157">
        <ele>242.87</ele>
        <time>2021-06-01T09:00:09Z</time>
      </trkpt>
      <trkpt lat="47.5584" lon="4.22154">
        <ele>242.87</ele>
        <time>2021-06-01T09:00:10Z</time>
      </trkpt>
      <trkpt lat="47.55839" lon="4.22152">
        <ele>243.35</ele>
        <time>2021-06-01T09:00:11Z</time>
      </trkpt>
      <trkpt lat="47.55838" lon="4.22149">
        <ele>243.35</ele>
        <time>2021-06-01T09:00:12Z</time>
      </trkpt>
      <trkpt lat="47.55837" lon="4.22147">
        <ele>243.35</ele>
        <time>2021-06-01T09:00:13Z</time>
      </trkpt>
      <trkpt lat="47.55827" lon="4.22121">
        <ele>243.35</ele>
        <time>2021-06-01T09:00:21Z</time>
      </trkpt>
      <trkpt lat="47.55806" lon="4.22075">
        <ele>240.95</ele>
        <time>2021-06-01T09:00:32Z</time>
      </trkpt>
      <trkpt lat="47.55765" lon="4.22008">
        <ele>239.99</ele>
        <time>2021-06-01T09:00:48Z</time>
      </trkpt>
      <trkpt lat="47.55699" lon="4.21911">
        <ele>238.54</ele>
        <time>2021-06-01T09:01:08Z</time>
      </trkpt>
      <trkpt lat="47.55615" lon="4.21817">
        <ele>237.1</ele>
        <time>2021-06-01T09:01:28Z</time>
      </trkpt>
      <trkpt lat="47.55544" lon="4.21741">
        <ele>236.62</ele>
        <time>2021-06-01T09:01:46Z</time>
      </trkpt>
      <trkpt lat="47.55507" lon="4.21644">
        <ele>236.62</ele>
        <time>2021-06-01T09:02:02Z</time>
      </trkpt>
      <trkpt lat="47.55506" lon="4.21638">
        <ele>236.62</ele>
        <time>2021-06-01T09:02:03Z</time>
      </trkpt>
      <trkpt lat="47.55505" lon="4.21632">
        <ele>236.62</ele>
        <time>2021-06-01T09:02:04Z</time>
      </trkpt>
      <trkpt lat="47.55505" lon="4.21626">
        <ele>236.62</ele>
        <time>2021-06-01T09:02:05Z</time>
      </trkpt>
      <trkpt lat="47.55505" lon="4.2162">
        <ele>236.62</ele>
        <time>2021-06-01T09:02:06Z</time>
      </trkpt>
      <trkpt lat="47.55506" lon="4.21614">
        <ele>236.62</ele>
        <time>2021-06-01T09:02:07Z</time>
      </trkpt>
      <trkpt lat="47.55507" lon="4.21608">
        <ele>237.1</ele>
        <time>2021-06-01T09:02:08Z</time>
      </trkpt>
      <trkpt lat="47.55508" lon="4.21602">
        <ele>237.1</ele>
        <time>2021-06-01T09:02:09Z</time>
      </trkpt>
      <trkpt lat="47.5551" lon="4.21597">
        <ele>237.1</ele>
        <time>2021-06-01T09:02:10Z</time>
      </trkpt>
      <trkpt lat="47.55512" lon="4.21591">
        <ele>237.1</ele>
        <time>2021-06-01T09:02:11Z</time>
      </trkpt>
      <trkpt lat="47.55528" lon="4.21533">
        <ele>240.47</ele>
        <time>2021-06-01T09:02:25Z</time>
      </trkpt>
      <trkpt lat="47.55511" lon="4.21483">
        <ele>242.39</ele>
        <time>2021-06-01T09:02:38Z</time>
      </trkpt>
      <trkpt lat="47.5546" lon="4.21429">
        <ele>242.39</ele>
        <time>2021-06-01T09:02:52Z</time>
      </trkpt>
      <trkpt lat="47.55402" lon="4.21368">
        <ele>240.47</ele>
        <time>2021-06-01T09:03:05Z</time>
      </trkpt>
      <trkpt lat="47.55398" lon="4.21365">
        <ele>239.99</ele>
        <time>2021-06-01T09:03:06Z</time>
      </trkpt>
      <trkpt lat="47.55393" lon="4.21364">
        <ele>239.99</ele>
        <time>2021-06-01T09:03:07Z</time>
      </trkpt>
      <trkpt lat="47.55388" lon="4.21363">
        <ele>239.51</ele>
        <time>2021-06-01T09:03:08Z</time>
      </trkpt>
      <trkpt lat="47.55383" lon="4.21365">
        <ele>239.51</ele>
        <time>2021-06-01T09:03:09Z</time>
      </trkpt>
      <trkpt lat="47.55379" lon="4.21368">
        <ele>239.02</ele>
        <time>2021-06-01T09:03:10Z</time>
      </trkpt>
      <trkpt lat="47.55375" lon="4.21372">
        <ele>239.02</ele>
        <time>2021-06-01T09:03:11Z</time>
      </trkpt>
      <trkpt lat="47.55372" lon="4.21377">
        <ele>239.51</ele>
        <time>2021-06-01T09:03:12Z</time>
      </trkpt>
      <trkpt lat="47.55369" lon="4.21381">
        <ele>239.51</ele>
        <time>2021-06-01T09:03:13Z</time>
      </trkpt>
      <trkpt lat="47.55365" lon="4.21386">
        <ele>239.51</ele>
        <time>2021-06-01T09:03:14Z</time>
      </trkpt>
      <trkpt lat="47.55302" lon="4.21417">
        <ele>237.1</ele>
        <time>2021-06-01T09:03:28Z</time>
      </trkpt>
      <trkpt lat="47.55298" lon="4.21417">
        <ele>237.1</ele>
        <time>2021-06-01T09:03:29Z</time>
      </trkpt>
      <trkpt lat="47.55293" lon="4.21417">
        <ele>237.1</ele>
        <time>2021-06-01T09:03:30Z</time>
      </trkpt>
      <trkpt lat="47.55279" lon="4.21413">
        <ele>236.62</ele>
        <time>2021-06-01T09:03:33Z</time>
      </trkpt>
      <trkpt lat="47.55224" lon="4.21377">
        <ele>239.02</ele>
        <time>2021-06-01T09:03:48Z</time>
      </trkpt>
      <trkpt lat="47.55174" lon="4.21337">
        <ele>242.39</ele>
        <time>2021-06-01T09:04:07Z</time>
      </trkpt>
      <trkpt lat="47.55136" lon="4.21289">
        <ele>243.35</ele>
        <time>2021-06-01T09:04:26Z</time>
      </trkpt>
      <trkpt lat="47.55095" lon="4.21231">
        <ele>246.72</ele>
        <time>2021-06-01T09:04:48Z</time>
      </trkpt>
      <trkpt lat="47.55054" lon="4.21155">
        <ele>249.6</ele>
        <time>2021-06-01T09:05:10Z</time>
      </trkpt>
      <trkpt lat="47.55021" lon="4.21077">
        <ele>251.04</ele>
        <time>2021-06-01T09:05:26Z</time>
      </trkpt>
      <trkpt lat="47.55016" lon="4.21066">
        <ele>251.04</ele>
        <time>2021-06-01T09:05:28Z</time>
      </trkpt>
      <trkpt lat="47.54957" lon="4.20971">
        <ele>252.48</ele>
        <time>2021-06-01T09:05:47Z</time>
      </trkpt>
      <trkpt lat="47.54894" lon="4.20871">
        <ele>251.52</ele>
        <time>2021-06-01T09:06:07Z</time>
      </trkpt>
      <trkpt lat="47.54847" lon="4.20836">
        <ele>254.41</ele>
        <time>2021-06-01T09:06:25Z</time>
      </trkpt>
      <trkpt lat="47.54803" lon="4.20799">
        <ele>258.25</ele>
        <time>2021-06-01T09:06:45Z</time>
      </trkpt>
      <trkpt lat="47.54766" lon="4.20749">
        <ele>261.14</ele>
        <time>2021-06-01T09:07:05Z</time>
      </trkpt>
      <trkpt lat="47.54731" lon="4.20698">
        <ele>266.42</ele>
        <time>2021-06-01T09:07:25Z</time>
      </trkpt>
      <trkpt lat="47.54689" lon="4.20643">
        <ele>271.23</ele>
        <time>2021-06-01T09:07:47Z</time>
      </trkpt>
      <trkpt lat="47.54651" lon="4.20618">
        <ele>272.67</ele>
        <time>2021-06-01T09:08:05Z</time>
      </trkpt>
      <trkpt lat="47.5462" lon="4.20602">
        <ele>273.63</ele>
        <time>2021-06-01T09:08:19Z</time>
      </trkpt>
      <trkpt lat="47.54576" lon="4.20572">
        <ele>274.11</ele>
        <time>2021-06-01T09:08:37Z</time>
      </trkpt>
      <trkpt lat="47.5452" lon="4.20511">
        <ele>273.15</ele>
        <time>2021-06-01T09:08:57Z</time>
      </trkpt>
      <trkpt lat="47.5449" lon="4.20455">
        <ele>276.04</ele>
        <time>2021-06-01T09:09:11Z</time>
      </trkpt>
      <trkpt lat="47.54438" lon="4.20395">
        <ele>280.84</ele>
        <time>2021-06-01T09:09:26Z</time>
      </trkpt>
      <trkpt lat="47.54365" lon="4.20332">
        <ele>280.84</ele>
        <time>2021-06-01T09:09:43Z</time>
      </trkpt>
      <trkpt lat="47.54299" lon="4.20266">
        <ele>279.4</ele>
        <time>2021-06-01T09:09:59Z</time>
      </trkpt>
      <trkpt lat="47.54228" lon="4.2022">
        <ele>278.44</ele>
        <time>2021-06-01T09:10:12Z</time>
      </trkpt>
      <trkpt lat="47.54165" lon="4.20197">
        <ele>279.4</ele>
        <time>2021-06-01T09:10:24Z</time>
      </trkpt>
      <trkpt lat="47.54161" lon="4.20193">
        <ele>279.4</ele>
        <time>2021-06-01T09:10:25Z</time>
      </trkpt>
      <trkpt lat="47.54141" lon="4.20175">
        <ele>279.4</ele>
        <time>2021-06-01T09:10:30Z</time>
      </trkpt>
      <trkpt lat="47.54138" lon="4.2017">
        <ele>279.4</ele>
        <time>2021-06-01T09:10:31Z</time>
      </trkpt>
      <trkpt lat="47.54125" lon="4.20147">
        <ele>279.4</ele>
        <time>2021-06-01T09:10:36Z</time>
      </trkpt>
      <trkpt lat="47.54088" lon="4.20064">
        <ele>280.36</ele>
        <time>2021-06-01T09:10:55Z</time>
      </trkpt>
      <trkpt lat="47.54044" lon="4.2">
        <ele>282.28</ele>
        <time>2021-06-01T09:11:14Z</time>
      </trkpt>
      <trkpt lat="47.53994" lon="4.1998">
        <ele>284.69</ele>
        <time>2021-06-01T09:11:31Z</time>
      </trkpt>
      <trkpt lat="47.53951" lon="4.19973">
        <ele>288.05</ele>
        <time>2021-06-01T09:11:46Z</time>
      </trkpt>
      <trkpt lat="47.53908" lon="4.19957">
        <ele>289.01</ele>
        <time>2021-06-01T09:12:02Z</time>
      </trkpt>
      <trkpt lat="47.53882" lon="4.1994">
        <ele>290.46</ele>
        <time>2021-06-01T09:12:15Z</time>
      </trkpt>
      <trkpt lat="47.53852" lon="4.19951">
        <ele>291.42</ele>
        <time>2021-06-01T09:12:28Z</time>
      </trkpt>
      <trkpt lat="47.53828" lon="4.19995">
        <ele>290.46</ele>
        <time>2021-06-01T09:12:42Z</time>
      </trkpt>
      <trkpt lat="47.53811" lon="4.20084">
        <ele>289.97</ele>
        <time>2021-06-01T09:13:02Z</time>
      </trkpt>
      <trkpt lat="47.53779" lon="4.20167">
        <ele>290.46</ele>
        <time>2021-06-01T09:13:22Z</time>
      </trkpt>
      <trkpt lat="47.53753" lon="4.20235">
        <ele>292.38</ele>
        <time>2021-06-01T09:13:42Z</time>
      </trkpt>
      <trkpt lat="47.53736" lon="4.20302">
        <ele>297.18</ele>
        <time>2021-06-01T09:14:04Z</time>
      </trkpt>
      <trkpt lat="47.53723" lon="4.20343">
        <ele>301.03</ele>
        <time>2021-06-01T09:14:21Z</time>
      </trkpt>
      <trkpt lat="47.53721" lon="4.20377">
        <ele>303.91</ele>
        <time>2021-06-01T09:14:37Z</time>
      </trkpt>
      <trkpt lat="47.53755" lon="4.20384">
        <ele>308.72</ele>
        <time>2021-06-01T09:14:53Z</time>
      </trkpt>
      <trkpt lat="47.53824" lon="4.20376">
        <ele>306.32</ele>
        <time>2021-06-01T09:15:09Z</time>
      </trkpt>
      <trkpt lat="47.53897" lon="4.20401">
        <ele>304.88</ele>
        <time>2021-06-01T09:15:25Z</time>
      </trkpt>
      <trkpt lat="47.54005" lon="4.20464">
        <ele>303.91</ele>
        <time>2021-06-01T09:15:49Z</time>
      </trkpt>
      <trkpt lat="47.54088" lon="4.20513">
        <ele>304.88</ele>
        <time>2021-06-01T09:16:08Z</time>
      </trkpt>
      <trkpt lat="47.54163" lon="4.20558">
        <ele>304.88</ele>
        <time>2021-06-01T09:16:25Z</time>
      </trkpt>
      <trkpt lat="47.54171" lon="4.20563">
        <ele>304.88</ele>
        <time>2021-06-01T09:16:27Z</time>
      </trkpt>
      <trkpt lat="47.54206" lon="4.20593">
        <ele>307.76</ele>
        <time>2021-06-01T09:16:36Z</time>
      </trkpt>
      <trkpt lat="47.5421" lon="4.20596">
        <ele>308.24</ele>
        <time>2021-06-01T09:16:37Z</time>
      </trkpt>
      <trkpt lat="47.54213" lon="4.206">
        <ele>308.72</ele>
        <time>2021-06-01T09:16:38Z</time>
      </trkpt>
      <trkpt lat="47.54261" lon="4.2066">
        <ele>310.64</ele>
        <time>2021-06-01T09:16:54Z</time>
      </trkpt>
      <trkpt lat="47.54284" lon="4.20708">
        <ele>311.6</ele>
        <time>2021-06-01T09:17:10Z</time>
      </trkpt>
      <trkpt lat="47.54306" lon="4.20757">
        <ele>314.01</ele>
        <time>2021-06-01T09:17:28Z</time>
      </trkpt>
      <trkpt lat="47.54325" lon="4.20814">
        <ele>318.33</ele>
        <time>2021-06-01T09:17:47Z</time>
      </trkpt>
      <trkpt lat="47.54348" lon="4.20884">
        <ele>321.7</ele>
        <time>2021-06-01T09:18:09Z</time>
      </trkpt>
      <trkpt lat="47.54382" lon="4.20945">
        <ele>321.22</ele>
        <time>2021-06-01T09:18:27Z</time>
      </trkpt>
      <trkpt lat="47.54416" lon="4.20995">
        <ele>321.7</ele>
        <time>2021-06-01T09:18:42Z</time>
      </trkpt>
      <trkpt lat="47.54462" lon="4.21087">
        <ele>321.7</ele>
        <time>2021-06-01T09:19:00Z</time>
      </trkpt>
      <trkpt lat="47.5448" lon="4.21143">
        <ele>324.58</ele>
        <time>2021-06-01T09:19:09Z</time>
      </trkpt>
      <trkpt lat="47.54498" lon="4.21215">
        <ele>331.31</ele>
        <time>2021-06-01T09:19:21Z</time>
      </trkpt>
      <trkpt lat="47.54524" lon="4.21335">
        <ele>333.71</ele>
        <time>2021-06-01T09:19:38Z</time>
      </trkpt>
      <trkpt lat="47.54536" lon="4.21486">
        <ele>329.87</ele>
        <time>2021-06-01T09:19:56Z</time>
      </trkpt>
      <trkpt lat="47.54549" lon="4.21626">
        <ele>322.66</ele>
        <time>2021-06-01T09:20:09Z</time>
      </trkpt>
      <trkpt lat="47.54542" lon="4.21792">
        <ele>311.6</ele>
        <time>2021-06-01T09:20:24Z</time>
      </trkpt>
      <trkpt lat="47.54536" lon="4.21824">
        <ele>310.64</ele>
        <time>2021-06-01T09:20:27Z</time>
      </trkpt>
      <trkpt lat="47.54534" lon="4.21834">
        <ele>310.16</ele>
        <time>2021-06-01T09:20:28Z</time>
      </trkpt>
      <trkpt lat="47.54492" lon="4.21952">
        <ele>303.91</ele>
        <time>2021-06-01T09:20:41Z</time>
      </trkpt>
      <trkpt lat="47.5444" lon="4.22087">
        <ele>297.67</ele>
        <time>2021-06-01T09:20:56Z</time>
      </trkpt>
      <trkpt lat="47.54409" lon="4.2218">
        <ele>294.3</ele>
        <time>2021-06-01T09:21:05Z</time>
      </trkpt>
      <trkpt lat="47.54407" lon="4.22193">
        <ele>293.82</ele>
        <time>2021-06-01T09:21:06Z</time>
      </trkpt>
      <trkpt lat="47.54406" lon="4.22206">
        <ele>293.34</ele>
        <time>2021-06-01T09:21:07Z</time>
      </trkpt>
      <trkpt lat="47.54406" lon="4.22219">
        <ele>292.86</ele>
        <time>2021-06-01T09:21:08Z</time>
      </trkpt>
      <trkpt lat="47.54407" lon="4.22232">
        <ele>291.9</ele>
        <time>2021-06-01T09:21:09Z</time>
      </trkpt>
      <trkpt lat="47.54409" lon="4.22245">
        <ele>290.94</ele>
        <time>2021-06-01T09:21:10Z</time>
      </trkpt>
      <trkpt lat="47.54411" lon="4.22271">
        <ele>289.97</ele>
        <time>2021-06-01T09:21:12Z</time>
      </trkpt>
      <trkpt lat="47.5441" lon="4.22282">
        <ele>289.01</ele>
        <time>2021-06-01T09:21:13Z</time>
      </trkpt>
      <trkpt lat="47.54408" lon="4.22293">
        <ele>288.53</ele>
        <time>2021-06-01T09:21:14Z</time>
      </trkpt>
      <trkpt lat="47.54403" lon="4.22314">
        <ele>287.57</ele>
        <time>2021-06-01T09:21:16Z</time>
      </trkpt>
      <trkpt lat="47.54402" lon="4.22325">
        <ele>287.57</ele>
        <time>2021-06-01T09:21:17Z</time>
      </trkpt>
      <trkpt lat="47.54402" lon="4.22335">
        <ele>287.09</ele>
        <time>2021-06-01T09:21:18Z</time>
      </trkpt>
      <trkpt lat="47.54404" lon="4.22345">
        <ele>287.09</ele>
        <time>2021-06-01T09:21:19Z</time>
      </trkpt>
      <trkpt lat="47.54406" lon="4.22353">
        <ele>287.09</ele>
        <time>2021-06-01T09:21:20Z</time>
      </trkpt>
      <trkpt lat="47.54409" lon="4.2236">
        <ele>287.09</ele>
        <time>2021-06-01T09:21:21Z</time>
      </trkpt>
      <trkpt lat="47.54412" lon="4.22367">
        <ele>287.09</ele>
        <time>2021-06-01T09:21:22Z</time>
      </trkpt>
      <trkpt lat="47.54416" lon="4.22373">
        <ele>287.57</ele>
        <time>2021-06-01T09:21:23Z</time>
      </trkpt>
      <trkpt lat="47.5447" lon="4.22427">
        <ele>286.13</ele>
        <time>2021-06-01T09:21:35Z</time>
      </trkpt>
      <trkpt lat="47.54546" lon="4.22498">
        <ele>287.57</ele>
        <time>2021-06-01T09:21:53Z</time>
      </trkpt>
      <trkpt lat="47.5455" lon="4.22503">
        <ele>287.57</ele>
        <time>2021-06-01T09:21:54Z</time>
      </trkpt>
      <trkpt lat="47.54602" lon="4.22604">
        <ele>285.65</ele>
        <time>2021-06-01T09:22:08Z</time>
      </trkpt>
      <trkpt lat="47.5463" lon="4.22661">
        <ele>283.73</ele>
        <time>2021-06-01T09:22:15Z</time>
      </trkpt>
      <trkpt lat="47.54633" lon="4.2267">
        <ele>283.73</ele>
        <time>2021-06-01T09:22:16Z</time>
      </trkpt>
      <trkpt lat="47.54635" lon="4.22678">
        <ele>283.25</ele>
        <time>2021-06-01T09:22:17Z</time>
      </trkpt>
      <trkpt lat="47.54637" lon="4.22687">
        <ele>283.25</ele>
        <time>2021-06-01T09:22:18Z</time>
      </trkpt>
      <trkpt lat="47.54639" lon="4.22695">
        <ele>283.25</ele>
        <time>2021-06-01T09:22:19Z</time>
      </trkpt>
      <trkpt lat="47.5464" lon="4.22704">
        <ele>283.25</ele>
        <time>2021-06-01T09:22:20Z</time>
      </trkpt>
      <trkpt lat="47.54646" lon="4.22755">
        <ele>282.77</ele>
        <time>2021-06-01T09:22:26Z</time>
      </trkpt>
      <trkpt lat="47.54681" lon="4.22846">
        <ele>282.77</ele>
        <time>2021-06-01T09:22:40Z</time>
      </trkpt>
      <trkpt lat="47.54745" lon="4.22961">
        <ele>279.88</ele>
        <time>2021-06-01T09:22:57Z</time>
      </trkpt>
      <trkpt lat="47.54817" lon="4.23061">
        <ele>276.04</ele>
        <time>2021-06-01T09:23:12Z</time>
      </trkpt>
      <trkpt lat="47.54887" lon="4.23217">
        <ele>274.11</ele>
        <time>2021-06-01T09:23:31Z</time>
      </trkpt>
      <trkpt lat="47.5494" lon="4.23311">
        <ele>274.11</ele>
        <time>2021-06-01T09:23:44Z</time>
      </trkpt>
      <trkpt lat="47.55014" lon="4.23392">
        <ele>273.15</ele>
        <time>2021-06-01T09:24:00Z</time>
      </trkpt>
      <trkpt lat="47.55109" lon="4.23484">
        <ele>272.19</ele>
        <time>2021-06-01T09:24:21Z</time>
      </trkpt>
      <trkpt lat="47.55201" lon="4.23599">
        <ele>269.79</ele>
        <time>2021-06-01T09:24:41Z</time>
      </trkpt>
      <trkpt lat="47.55256" lon="4.2368">
        <ele>270.75</ele>
        <time>2021-06-01T09:24:57Z</time>
      </trkpt>
      <trkpt lat="47.55283" lon="4.23727">
        <ele>271.71</ele>
        <time>2021-06-01T09:25:07Z</time>
      </trkpt>
      <trkpt lat="47.55328" lon="4.23834">
        <ele>272.19</ele>
        <time>2021-06-01T09:25:26Z</time>
      </trkpt>
      <trkpt lat="47.55344" lon="4.23901">
        <ele>271.71</ele>
        <time>2021-06-01T09:25:35Z</time>
      </trkpt>
      <trkpt lat="47.55346" lon="4.23908">
        <ele>271.71</ele>
        <time>2021-06-01T09:25:36Z</time>
      </trkpt>
      <trkpt lat="47.55391" lon="4.24007">
        <ele>270.75</ele>
        <time>2021-06-01T09:25:51Z</time>
      </trkpt>
      <trkpt lat="47.5543" lon="4.24101">
        <ele>270.27</ele>
        <time>2021-06-01T09:26:05Z</time>
      </trkpt>
      <trkpt lat="47.55489" lon="4.24217">
        <ele>270.75</ele>
        <time>2021-06-01T09:26:25Z</time>
      </trkpt>
      <trkpt lat="47.55554" lon="4.24307">
        <ele>270.75</ele>
        <time>2021-06-01T09:26:42Z</time>
      </trkpt>
      <trkpt lat="47.55618" lon="4.24397">
        <ele>271.71</ele>
        <time>2021-06-01T09:26:58Z</time>
      </trkpt>
      <trkpt lat="47.55674" lon="4.2449">
        <ele>272.67</ele>
        <time>2021-06-01T09:27:15Z</time>
      </trkpt>
      <trkpt lat="47.55749" lon="4.24604">
        <ele>270.75</ele>
        <time>2021-06-01T09:27:34Z</time>
      </trkpt>
      <trkpt lat="47.55845" lon="4.24748">
        <ele>269.31</ele>
        <time>2021-06-01T09:27:57Z</time>
      </trkpt>
      <trkpt lat="47.55932" lon="4.24849">
        <ele>268.83</ele>
        <time>2021-06-01T09:28:16Z</time>
      </trkpt>
      <trkpt lat="47.56016" lon="4.24949">
        <ele>263.54</ele>
        <time>2021-06-01T09:28:30Z</time>
      </trkpt>
      <trkpt lat="47.56099" lon="4.25077">
        <ele>256.33</ele>
        <time>2021-06-01T09:28:43Z</time>
      </trkpt>
      <trkpt lat="47.56154" lon="4.2516">
        <ele>254.41</ele>
        <time>2021-06-01T09:28:53Z</time>
      </trkpt>
      <trkpt lat="47.5616" lon="4.25164">
        <ele>254.41</ele>
        <time>2021-06-01T09:28:54Z</time>
      </trkpt>
      <trkpt lat="47.56167" lon="4.25168">
        <ele>253.93</ele>
        <time>2021-06-01T09:28:55Z</time>
      </trkpt>
      <trkpt lat="47.56174" lon="4.2517">
        <ele>253.93</ele>
        <time>2021-06-01T09:28:56Z</time>
      </trkpt>
      <trkpt lat="47.5618" lon="4.25171">
        <ele>253.93</ele>
        <time>2021-06-01T09:28:57Z</time>
      </trkpt>
      <trkpt lat="47.56186" lon="4.25172">
        <ele>253.93</ele>
        <time>2021-06-01T09:28:58Z</time>
      </trkpt>
      <trkpt lat="47.56285" lon="4.25174">
        <ele>252.48</ele>
        <time>2021-06-01T09:29:14Z</time>
      </trkpt>
      <trkpt lat="47.5638" lon="4.25182">
        <ele>245.75</ele>
        <time>2021-06-01T09:29:25Z</time>
      </trkpt>
      <trkpt lat="47.56479" lon="4.25205">
        <ele>236.62</ele>
        <time>2021-06-01T09:29:37Z</time>
      </trkpt>
      <trkpt lat="47.56493" lon="4.25213">
        <ele>235.18</ele>
        <time>2021-06-01T09:29:40Z</time>
      </trkpt>
      <trkpt lat="47.56497" lon="4.25216">
        <ele>235.18</ele>
        <time>2021-06-01T09:29:41Z</time>
      </trkpt>
      <trkpt lat="47.56499" lon="4.25219">
        <ele>234.7</ele>
        <time>2021-06-01T09:29:42Z</time>
      </trkpt>
      <trkpt lat="47.56501" lon="4.25222">
        <ele>234.7</ele>
        <time>2021-06-01T09:29:43Z</time>
      </trkpt>
      <trkpt lat="47.56501" lon="4.25227">
        <ele>234.7</ele>
        <time>2021-06-01T09:29:44Z</time>
      </trkpt>
      <trkpt lat="47.56501" lon="4.25232">
        <ele>234.22</ele>
        <time>2021-06-01T09:29:45Z</time>
      </trkpt>
      <trkpt lat="47.565" lon="4.25238">
        <ele>233.74</ele>
        <time>2021-06-01T09:29:46Z</time>
      </trkpt>
      <trkpt lat="47.56498" lon="4.25243">
        <ele>233.74</ele>
        <time>2021-06-01T09:29:47Z</time>
      </trkpt>
      <trkpt lat="47.56495" lon="4.25249">
        <ele>233.26</ele>
        <time>2021-06-01T09:29:48Z</time>
      </trkpt>
      <trkpt lat="47.56493" lon="4.25255">
        <ele>232.78</ele>
        <time>2021-06-01T09:29:49Z</time>
      </trkpt>
      <trkpt lat="47.56485" lon="4.25274">
        <ele>231.81</ele>
        <time>2021-06-01T09:29:52Z</time>
      </trkpt>
      <trkpt lat="47.56483" lon="4.2528">
        <ele>231.81</ele>
        <time>2021-06-01T09:29:53Z</time>
      </trkpt>
      <trkpt lat="47.56483" lon="4.25286">
        <ele>231.81</ele>
        <time>2021-06-01T09:29:54Z</time>
      </trkpt>
      <trkpt lat="47.56485" lon="4.25292">
        <ele>231.33</ele>
        <time>2021-06-01T09:29:55Z</time>
      </trkpt>
      <trkpt lat="47.56488" lon="4.25298">
        <ele>230.85</ele>
        <time>2021-06-01T09:29:56Z</time>
      </trkpt>
      <trkpt lat="47.56492" lon="4.25303">
        <ele>230.37</ele>
        <time>2021-06-01T09:29:57Z</time>
      </trkpt>
      <trkpt lat="47.56496" lon="4.25308">
        <ele>229.89</ele>
        <time>2021-06-01T09:29:58Z</time>
      </trkpt>
      <trkpt lat="47.56518" lon="4.25331">
        <ele>228.45</ele>
        <time>2021-06-01T09:30:03Z</time>
      </trkpt>
      <trkpt lat="47.56521" lon="4.25339">
        <ele>228.45</ele>
        <time>2021-06-01T09:30:04Z</time>
      </trkpt>
      <trkpt lat="47.56521" lon="4.25347">
        <ele>227.97</ele>
        <time>2021-06-01T09:30:05Z</time>
      </trkpt>
      <trkpt lat="47.5652" lon="4.25355">
        <ele>227.97</ele>
        <time>2021-06-01T09:30:06Z</time>
      </trkpt>
      <trkpt lat="47.56519" lon="4.25363">
        <ele>227.49</ele>
        <time>2021-06-01T09:30:07Z</time>
      </trkpt>
      <trkpt lat="47.56501" lon="4.25394">
        <ele>225.57</ele>
        <time>2021-06-01T09:30:15Z</time>
      </trkpt>
      <trkpt lat="47.56491" lon="4.25437">
        <ele>224.12</ele>
        <time>2021-06-01T09:30:24Z</time>
      </trkpt>
      <trkpt lat="47.56494" lon="4.25449">
        <ele>224.12</ele>
        <time>2021-06-01T09:30:26Z</time>
      </trkpt>
      <trkpt lat="47.56494" lon="4.25457">
        <ele>223.64</ele>
        <time>2021-06-01T09:30:27Z</time>
      </trkpt>
      <trkpt lat="47.56503" lon="4.25521">
        <ele>219.32</ele>
        <time>2021-06-01T09:30:37Z</time>
      </trkpt>
      <trkpt lat="47.56524" lon="4.25549">
        <ele>219.8</ele>
        <time>2021-06-01T09:30:44Z</time>
      </trkpt>
      <trkpt lat="47.56589" lon="4.25618">
        <ele>222.68</ele>
        <time>2021-06-01T09:31:00Z</time>
      </trkpt>
      <trkpt lat="47.56607" lon="4.25635">
        <ele>222.68</ele>
        <time>2021-06-01T09:31:05Z</time>
      </trkpt>
      <trkpt lat="47.5661" lon="4.25639">
        <ele>222.2</ele>
        <time>2021-06-01T09:31:06Z</time>
      </trkpt>
      <trkpt lat="47.56615" lon="4.25649">
        <ele>222.2</ele>
        <time>2021-06-01T09:31:08Z</time>
      </trkpt>
      <trkpt lat="47.56617" lon="4.25655">
        <ele>222.2</ele>
        <time>2021-06-01T09:31:09Z</time>
      </trkpt>
      <trkpt lat="47.56617" lon="4.25662">
        <ele>222.2</ele>
        <time>2021-06-01T09:31:10Z</time>
      </trkpt>
      <trkpt lat="47.56617" lon="4.25667">
        <ele>222.2</ele>
        <time>2021-06-01T09:31:11Z</time>
      </trkpt>
      <trkpt lat="47.56616" lon="4.25673">
        <ele>222.68</ele>
        <time>2021-06-01T09:31:12Z</time>
      </trkpt>
      <trkpt lat="47.56616" lon="4.25679">
        <ele>222.2</ele>
        <time>2021-06-01T09:31:13Z</time>
      </trkpt>
      <trkpt lat="47.56615" lon="4.25685">
        <ele>222.2</ele>
        <time>2021-06-01T09:31:14Z</time>
      </trkpt>
      <trkpt lat="47.56614" lon="4.25691">
        <ele>222.2</ele>
        <time>2021-06-01T09:31:15Z</time>
      </trkpt>
      <trkpt lat="47.56592" lon="4.25749">
        <ele>222.2</ele>
        <time>2021-06-01T09:31:26Z</time>
      </trkpt>
      <trkpt lat="47.5654" lon="4.25825">
        <ele>219.32</ele>
        <time>2021-06-01T09:31:42Z</time>
      </trkpt>
      <trkpt lat="47.56468" lon="4.2591">
        <ele>215.95</ele>
        <time>2021-06-01T09:32:01Z</time>
      </trkpt>
      <trkpt lat="47.56386" lon="4.2602">
        <ele>214.03</ele>
        <time>2021-06-01T09:32:24Z</time>
      </trkpt>
      <trkpt lat="47.56324" lon="4.26103">
        <ele>213.55</ele>
        <time>2021-06-01T09:32:41Z</time>
      </trkpt>
      <trkpt lat="47.56288" lon="4.2615">
        <ele>213.55</ele>
        <time>2021-06-01T09:32:51Z</time>
      </trkpt>
      <trkpt lat="47.56226" lon="4.26235">
        <ele>212.59</ele>
        <time>2021-06-01T09:33:09Z</time>
      </trkpt>
      <trkpt lat="47.562" lon="4.26266">
        <ele>212.59</ele>
        <time>2021-06-01T09:33:16Z</time>
      </trkpt>
      <trkpt lat="47.56196" lon="4.26269">
        <ele>212.59</ele>
        <time>2021-06-01T09:33:17Z</time>
      </trkpt>
      <trkpt lat="47.56136" lon="4.26324">
        <ele>213.07</ele>
        <time>2021-06-01T09:33:32Z</time>
      </trkpt>
      <trkpt lat="47.56131" lon="4.26326">
        <ele>213.07</ele>
        <time>2021-06-01T09:33:33Z</time>
      </trkpt>
      <trkpt lat="47.56113" lon="4.26335">
        <ele>213.07</ele>
        <time>2021-06-01T09:33:37Z</time>
      </trkpt>
      <trkpt lat="47.56108" lon="4.26336">
        <ele>213.07</ele>
        <time>2021-06-01T09:33:38Z</time>
      </trkpt>
      <trkpt lat="47.56104" lon="4.26336">
        <ele>213.07</ele>
        <time>2021-06-01T09:33:39Z</time>
      </trkpt>
      <trkpt lat="47.56099" lon="4.26336">
        <ele>213.07</ele>
        <time>2021-06-01T09:33:40Z</time>
      </trkpt>
      <trkpt lat="47.56094" lon="4.26335">
        <ele>213.07</ele>
        <time>2021-06-01T09:33:41Z</time>
      </trkpt>
      <trkpt lat="47.56028" lon="4.26348">
        <ele>214.03</ele>
        <time>2021-06-01T09:33:55Z</time>
      </trkpt>
      <trkpt lat="47.55953" lon="4.26381">
        <ele>214.03</ele>
        <time>2021-06-01T09:34:13Z</time>
      </trkpt>
      <trkpt lat="47.55934" lon="4.26395">
        <ele>214.03</ele>
        <time>2021-06-01T09:34:18Z</time>
      </trkpt>
      <trkpt lat="47.55869" lon="4.26438">
        <ele>213.55</ele>
        <time>2021-06-01T09:34:35Z</time>
      </trkpt>
      <trkpt lat="47.55789" lon="4.26493">
        <ele>214.99</ele>
        <time>2021-06-01T09:34:56Z</time>
      </trkpt>
      <trkpt lat="47.55744" lon="4.26528">
        <ele>215.47</ele>
        <time>2021-06-01T09:35:08Z</time>
      </trkpt>
      <trkpt lat="47.55669" lon="4.26594">
        <ele>214.99</ele>
        <time>2021-06-01T09:35:29Z</time>
      </trkpt>
      <trkpt lat="47.55601" lon="4.26655">
        <ele>214.51</ele>
        <time>2021-06-01T09:35:48Z</time>
      </trkpt>
      <trkpt lat="47.5553" lon="4.26726">
        <ele>214.99</ele>
        <time>2021-06-01T09:36:08Z</time>
      </trkpt>
      <trkpt lat="47.55503" lon="4.26757">
        <ele>214.51</ele>
        <time>2021-06-01T09:36:16Z</time>
      </trkpt>
      <trkpt lat="47.5545" lon="4.26835">
        <ele>215.47</ele>
        <time>2021-06-01T09:36:33Z</time>
      </trkpt>
      <trkpt lat="47.55429" lon="4.26865">
        <ele>215.47</ele>
        <time>2021-06-01T09:36:40Z</time>
      </trkpt>
      <trkpt lat="47.55423" lon="4.26875">
        <ele>215.47</ele>
        <time>2021-06-01T09:36:42Z</time>
      </trkpt>
      <trkpt lat="47.55364" lon="4.26947">
        <ele>214.99</ele>
        <time>2021-06-01T09:37:00Z</time>
      </trkpt>
      <trkpt lat="47.55361" lon="4.26957">
        <ele>214.99</ele>
        <time>2021-06-01T09:37:02Z</time>
      </trkpt>
      <trkpt lat="47.55361" lon="4.26965">
        <ele>214.99</ele>
        <time>2021-06-01T09:37:03Z</time>
      </trkpt>
      <trkpt lat="47.55362" lon="4.26969">
        <ele>215.47</ele>
        <time>2021-06-01T09:37:04Z</time>
      </trkpt>
      <trkpt lat="47.55364" lon="4.26975">
        <ele>215.47</ele>
        <time>2021-06-01T09:37:05Z</time>
      </trkpt>
      <trkpt lat="47.55367" lon="4.26981">
        <ele>215.47</ele>
        <time>2021-06-01T09:37:06Z</time>
      </trkpt>
      <trkpt lat="47.55404" lon="4.27081">
        <ele>216.91</ele>
        <time>2021-06-01T09:37:24Z</time>
      </trkpt>
      <trkpt lat="47.55443" lon="4.27191">
        <ele>217.4</ele>
        <time>2021-06-01T09:37:44Z</time>
      </trkpt>
      <trkpt lat="47.55474" lon="4.27252">
        <ele>217.88</ele>
        <time>2021-06-01T09:37:57Z</time>
      </trkpt>
      <trkpt lat="47.5551" lon="4.27333">
        <ele>218.36</ele>
        <time>2021-06-01T09:38:14Z</time>
      </trkpt>
      <trkpt lat="47.55547" lon="4.27415">
        <ele>219.8</ele>
        <time>2021-06-01T09:38:31Z</time>
      </trkpt>
      <trkpt lat="47.55593" lon="4.27492">
        <ele>221.72</ele>
        <time>2021-06-01T09:38:49Z</time>
      </trkpt>
      <trkpt lat="47.55665" lon="4.27578">
        <ele>224.12</ele>
        <time>2021-06-01T09:39:13Z</time>
      </trkpt>
      <trkpt lat="47.55726" lon="4.27629">
        <ele>226.53</ele>
        <time>2021-06-01T09:39:33Z</time>
      </trkpt>
      <trkpt lat="47.55774" lon="4.27646">
        <ele>230.85</ele>
        <time>2021-06-01T09:39:50Z</time>
      </trkpt>
      <trkpt lat="47.55808" lon="4.27648">
        <ele>233.74</ele>
        <time>2021-06-01T09:40:05Z</time>
      </trkpt>
      <trkpt lat="47.55846" lon="4.27648">
        <ele>235.66</ele>
        <time>2021-06-01T09:40:24Z</time>
      </trkpt>
      <trkpt lat="47.55875" lon="4.27664">
        <ele>237.58</ele>
        <time>2021-06-01T09:40:40Z</time>
      </trkpt>
      <trkpt lat="47.55899" lon="4.27705">
        <ele>239.02</ele>
        <time>2021-06-01T09:40:57Z</time>
      </trkpt>
      <trkpt lat="47.55918" lon="4.27761">
        <ele>242.87</ele>
        <time>2021-06-01T09:41:12Z</time>
      </trkpt>
      <trkpt lat="47.55944" lon="4.27823">
        <ele>246.23</ele>
        <time>2021-06-01T09:41:29Z</time>
      </trkpt>
      <trkpt lat="47.55968" lon="4.27864">
        <ele>249.6</ele>
        <time>2021-06-01T09:41:47Z</time>
      </trkpt>
      <trkpt lat="47.5597" lon="4.27869">
        <ele>250.08</ele>
        <time>2021-06-01T09:41:49Z</time>
      </trkpt>
      <trkpt lat="47.55971" lon="4.27873">
        <ele>249.6</ele>
        <time>2021-06-01T09:41:50Z</time>
      </trkpt>
      <trkpt lat="47.55972" lon="4.27876">
        <ele>249.12</ele>
        <time>2021-06-01T09:41:51Z</time>
      </trkpt>
      <trkpt lat="47.55974" lon="4.27879">
        <ele>248.16</ele>
        <time>2021-06-01T09:41:52Z</time>
      </trkpt>
      <trkpt lat="47.55975" lon="4.27881">
        <ele>247.68</ele>
        <time>2021-06-01T09:41:53Z</time>
      </trkpt>
      <trkpt lat="47.55984" lon="4.2792">
        <ele>251.04</ele>
        <time>2021-06-01T09:42:07Z</time>
      </trkpt>
      <trkpt lat="47.55991" lon="4.27962">
        <ele>258.25</ele>
        <time>2021-06-01T09:42:24Z</time>
      </trkpt>
      <trkpt lat="47.55996" lon="4.28007">
        <ele>259.69</ele>
        <time>2021-06-01T09:42:41Z</time>
      </trkpt>
      <trkpt lat="47.56007" lon="4.28052">
        <ele>259.21</ele>
        <time>2021-06-01T09:43:00Z</time>
      </trkpt>
      <trkpt lat="47.56018" lon="4.28093">
        <ele>258.73</ele>
        <time>2021-06-01T09:43:18Z</time>
      </trkpt>
      <trkpt lat="47.56028" lon="4.28138">
        <ele>263.06</ele>
        <time>2021-06-01T09:43:37Z</time>
      </trkpt>
      <trkpt lat="47.56027" lon="4.28178">
        <ele>263.54</ele>
        <time>2021-06-01T09:43:55Z</time>
      </trkpt>
      <trkpt lat="47.56028" lon="4.2822">
        <ele>264.5</ele>
        <time>2021-06-01T09:44:13Z</time>
      </trkpt>
      <trkpt lat="47.56007" lon="4.28254">
        <ele>265.46</ele>
        <time>2021-06-01T09:44:30Z</time>
      </trkpt>
      <trkpt lat="47.5597" lon="4.28292">
        <ele>263.54</ele>
        <time>2021-06-01T09:44:47Z</time>
      </trkpt>
      <trkpt lat="47.55916" lon="4.28338">
        <ele>264.02</ele>
        <time>2021-06-01T09:45:05Z</time>
      </trkpt>
      <trkpt lat="47.5589" lon="4.28367">
        <ele>265.94</ele>
        <time>2021-06-01T09:45:20Z</time>
      </trkpt>
      <trkpt lat="47.55881" lon="4.28405">
        <ele>272.67</ele>
        <time>2021-06-01T09:45:40Z</time>
      </trkpt>
      <trkpt lat="47.55878" lon="4.28441">
        <ele>277</ele>
        <time>2021-06-01T09:45:59Z</time>
      </trkpt>
      <trkpt lat="47.55874" lon="4.28469">
        <ele>280.36</ele>
        <time>2021-06-01T09:46:15Z</time>
      </trkpt>
      <trkpt lat="47.55867" lon="4.28497">
        <ele>283.25</ele>
        <time>2021-06-01T09:46:32Z</time>
      </trkpt>
      <trkpt lat="47.55858" lon="4.28531">
        <ele>285.17</ele>
        <time>2021-06-01T09:46:52Z</time>
      </trkpt>
      <trkpt lat="47.55845" lon="4.28563">
        <ele>288.05</ele>
        <time>2021-06-01T09:47:12Z</time>
      </trkpt>
      <trkpt lat="47.55835" lon="4.2859">
        <ele>290.46</ele>
        <time>2021-06-01T09:47:30Z</time>
      </trkpt>
      <trkpt lat="47.55827" lon="4.28619">
        <ele>293.82</ele>
        <time>2021-06-01T09:47:48Z</time>
      </trkpt>
      <trkpt lat="47.55821" lon="4.28648">
        <ele>297.67</ele>
        <time>2021-06-01T09:48:06Z</time>
      </trkpt>
      <trkpt lat="47.55816" lon="4.28673">
        <ele>301.99</ele>
        <time>2021-06-01T09:48:22Z</time>
      </trkpt>
      <trkpt lat="47.5581" lon="4.28707">
        <ele>304.88</ele>
        <time>2021-06-01T09:48:41Z</time>
      </trkpt>
      <trkpt lat="47.55806" lon="4.28745">
        <ele>308.24</ele>
        <time>2021-06-01T09:49:02Z</time>
      </trkpt>
      <trkpt lat="47.55795" lon="4.28776">
        <ele>310.64</ele>
        <time>2021-06-01T09:49:22Z</time>
      </trkpt>
      <trkpt lat="47.55772" lon="4.28811">
        <ele>312.57</ele>
        <time>2021-06-01T09:49:43Z</time>
      </trkpt>
      <trkpt lat="47.55745" lon="4.28859">
        <ele>312.57</ele>
        <time>2021-06-01T09:50:04Z</time>
      </trkpt>
      <trkpt lat="47.55731" lon="4.28893">
        <ele>314.49</ele>
        <time>2021-06-01T09:50:21Z</time>
      </trkpt>
      <trkpt lat="47.55722" lon="4.28929">
        <ele>317.85</ele>
        <time>2021-06-01T09:50:40Z</time>
      </trkpt>
      <trkpt lat="47.55711" lon="4.28964">
        <ele>319.3</ele>
        <time>2021-06-01T09:50:59Z</time>
      </trkpt>
      <trkpt lat="47.55698" lon="4.29002">
        <ele>320.74</ele>
        <time>2021-06-01T09:51:20Z</time>
      </trkpt>
      <trkpt lat="47.55689" lon="4.29047">
        <ele>326.02</ele>
        <time>2021-06-01T09:51:44Z</time>
      </trkpt>
      <trkpt lat="47.55683" lon="4.29095">
        <ele>328.91</ele>
        <time>2021-06-01T09:52:08Z</time>
      </trkpt>
      <trkpt lat="47.55682" lon="4.29129">
        <ele>330.35</ele>
        <time>2021-06-01T09:52:25Z</time>
      </trkpt>
      <trkpt lat="47.55687" lon="4.29172">
        <ele>332.75</ele>
        <time>2021-06-01T09:52:46Z</time>
      </trkpt>
      <trkpt lat="47.55693" lon="4.29213">
        <ele>338.52</ele>
        <time>2021-06-01T09:53:06Z</time>
      </trkpt>
      <trkpt lat="47.55697" lon="4.29248">
        <ele>343.81</ele>
        <time>2021-06-01T09:53:24Z</time>
      </trkpt>
      <trkpt lat="47.557" lon="4.29289">
        <ele>347.17</ele>
        <time>2021-06-01T09:53:43Z</time>
      </trkpt>
      <trkpt lat="47.557" lon="4.29292">
        <ele>347.17</ele>
        <time>2021-06-01T09:53:44Z</time>
      </trkpt>
      <trkpt lat="47.557" lon="4.29294">
        <ele>347.17</ele>
        <time>2021-06-01T09:53:45Z</time>
      </trkpt>
      <trkpt lat="47.55701" lon="4.29295">
        <ele>347.17</ele>
        <time>2021-06-01T09:53:46Z</time>
      </trkpt>
      <trkpt lat="47.55701" lon="4.29297">
        <ele>347.17</ele>
        <time>2021-06-01T09:53:47Z</time>
      </trkpt>
      <trkpt lat="47.55701" lon="4.29299">
        <ele>347.65</ele>
        <time>2021-06-01T09:53:48Z</time>
      </trkpt>
      <trkpt lat="47.55704" lon="4.29342">
        <ele>351.5</ele>
        <time>2021-06-01T09:54:07Z</time>
      </trkpt>
      <trkpt lat="47.55705" lon="4.29383">
        <ele>353.9</ele>
        <time>2021-06-01T09:54:26Z</time>
      </trkpt>
      <trkpt lat="47.55705" lon="4.29435">
        <ele>353.42</ele>
        <time>2021-06-01T09:54:44Z</time>
      </trkpt>
      <trkpt lat="47.55716" lon="4.29484">
        <ele>351.5</ele>
        <time>2021-06-01T09:55:03Z</time>
      </trkpt>
      <trkpt lat="47.55733" lon="4.29515">
        <ele>355.34</ele>
        <time>2021-06-01T09:55:23Z</time>
      </trkpt>
      <trkpt lat="47.55745" lon="4.2954">
        <ele>359.19</ele>
        <time>2021-06-01T09:55:41Z</time>
      </trkpt>
      <trkpt lat="47.55746" lon="4.29543">
        <ele>359.67</ele>
        <time>2021-06-01T09:55:43Z</time>
      </trkpt>
      <trkpt lat="47.55746" lon="4.29545">
        <ele>359.67</ele>
        <time>2021-06-01T09:55:44Z</time>
      </trkpt>
      <trkpt lat="47.55756" lon="4.29568">
        <ele>365.44</ele>
        <time>2021-06-01T09:56:00Z</time>
      </trkpt>
      <trkpt lat="47.55764" lon="4.29597">
        <ele>370.24</ele>
        <time>2021-06-01T09:56:15Z</time>
      </trkpt>
      <trkpt lat="47.55774" lon="4.29628">
        <ele>373.13</ele>
        <time>2021-06-01T09:56:32Z</time>
      </trkpt>
      <trkpt lat="47.55783" lon="4.29656">
        <ele>372.65</ele>
        <time>2021-06-01T09:56:49Z</time>
      </trkpt>
      <trkpt lat="47.55792" lon="4.29688">
        <ele>375.05</ele>
        <time>2021-06-01T09:57:07Z</time>
      </trkpt>
      <trkpt lat="47.55805" lon="4.29717">
        <ele>376.97</ele>
        <time>2021-06-01T09:57:26Z</time>
      </trkpt>
      <trkpt lat="47.55825" lon="4.29729">
        <ele>377.45</ele>
        <time>2021-06-01T09:57:42Z</time>
      </trkpt>
      <trkpt lat="47.55826" lon="4.2973">
        <ele>377.45</ele>
        <time>2021-06-01T09:57:43Z</time>
      </trkpt>
      <trkpt lat="47.55827" lon="4.29731">
        <ele>377.45</ele>
        <time>2021-06-01T09:57:44Z</time>
      </trkpt>
      <trkpt lat="47.55828" lon="4.29732">
        <ele>377.45</ele>
        <time>2021-06-01T09:57:45Z</time>
      </trkpt>
      <trkpt lat="47.55829" lon="4.29733">
        <ele>377.45</ele>
        <time>2021-06-01T09:57:46Z</time>
      </trkpt>
      <trkpt lat="47.5583" lon="4.29733">
        <ele>377.45</ele>
        <time>2021-06-01T09:57:47Z</time>
      </trkpt>
      <trkpt lat="47.55855" lon="4.29734">
        <ele>377.94</ele>
        <time>2021-06-01T09:58:05Z</time>
      </trkpt>
      <trkpt lat="47.55877" lon="4.29733">
        <ele>378.42</ele>
        <time>2021-06-01T09:58:21Z</time>
      </trkpt>
      <trkpt lat="47.55897" lon="4.29734">
        <ele>382.26</ele>
        <time>2021-06-01T09:58:37Z</time>
      </trkpt>
      <trkpt lat="47.55918" lon="4.29734">
        <ele>386.59</ele>
        <time>2021-06-01T09:58:55Z</time>
      </trkpt>
      <trkpt lat="47.55942" lon="4.29736">
        <ele>391.87</ele>
        <time>2021-06-01T09:59:15Z</time>
      </trkpt>
      <trkpt lat="47.5597" lon="4.29749">
        <ele>395.72</ele>
        <time>2021-06-01T09:59:36Z</time>
      </trkpt>
      <trkpt lat="47.55998" lon="4.29764">
        <ele>397.16</ele>
        <time>2021-06-01T09:59:58Z</time>
      </trkpt>
      <trkpt lat="47.56028" lon="4.29773">
        <ele>399.08</ele>
        <time>2021-06-01T10:00:18Z</time>
      </trkpt>
      <trkpt lat="47.56052" lon="4.29777">
        <ele>402.45</ele>
        <time>2021-06-01T10:00:36Z</time>
      </trkpt>
      <trkpt lat="47.56079" lon="4.29781">
        <ele>405.81</ele>
        <time>2021-06-01T10:00:56Z</time>
      </trkpt>
      <trkpt lat="47.56106" lon="4.29789">
        <ele>407.74</ele>
        <time>2021-06-01T10:01:15Z</time>
      </trkpt>
      <trkpt lat="47.56134" lon="4.29795">
        <ele>410.14</ele>
        <time>2021-06-01T10:01:35Z</time>
      </trkpt>
      <trkpt lat="47.56168" lon="4.29801">
        <ele>412.54</ele>
        <time>2021-06-01T10:01:58Z</time>
      </trkpt>
      <trkpt lat="47.56202" lon="4.29807">
        <ele>415.43</ele>
        <time>2021-06-01T10:02:22Z</time>
      </trkpt>
      <trkpt lat="47.56234" lon="4.29811">
        <ele>418.79</ele>
        <time>2021-06-01T10:02:44Z</time>
      </trkpt>
      <trkpt lat="47.56266" lon="4.29815">
        <ele>422.16</ele>
        <time>2021-06-01T10:03:06Z</time>
      </trkpt>
      <trkpt lat="47.56299" lon="4.29822">
        <ele>426.48</ele>
        <time>2021-06-01T10:03:29Z</time>
      </trkpt>
      <trkpt lat="47.56325" lon="4.29841">
        <ele>430.81</ele>
        <time>2021-06-01T10:03:46Z</time>
      </trkpt>
      <trkpt lat="47.56341" lon="4.29879">
        <ele>430.33</ele>
        <time>2021-06-01T10:03:54Z</time>
      </trkpt>
      <trkpt lat="47.56351" lon="4.29894">
        <ele>429.37</ele>
        <time>2021-06-01T10:03:57Z</time>
      </trkpt>
      <trkpt lat="47.56369" lon="4.29915">
        <ele>428.4</ele>
        <time>2021-06-01T10:04:03Z</time>
      </trkpt>
      <trkpt lat="47.56361" lon="4.2995">
        <ele>425.52</ele>
        <time>2021-06-01T10:04:11Z</time>
      </trkpt>
      <trkpt lat="47.5635" lon="4.29963">
        <ele>422.64</ele>
        <time>2021-06-01T10:04:14Z</time>
      </trkpt>
      <trkpt lat="47.56347" lon="4.30022">
        <ele>415.91</ele>
        <time>2021-06-01T10:04:21Z</time>
      </trkpt>
      <trkpt lat="47.56362" lon="4.30076">
        <ele>412.54</ele>
        <time>2021-06-01T10:04:28Z</time>
      </trkpt>
      <trkpt lat="47.56355" lon="4.30089">
        <ele>411.1</ele>
        <time>2021-06-01T10:04:30Z</time>
      </trkpt>
      <trkpt lat="47.56272" lon="4.30206">
        <ele>401.01</ele>
        <time>2021-06-01T10:04:45Z</time>
      </trkpt>
      <trkpt lat="47.56208" lon="4.30311">
        <ele>394.28</ele>
        <time>2021-06-01T10:04:58Z</time>
      </trkpt>
      <trkpt lat="47.56189" lon="4.30362">
        <ele>390.91</ele>
        <time>2021-06-01T10:05:03Z</time>
      </trkpt>
      <trkpt lat="47.56176" lon="4.30486">
        <ele>381.3</ele>
        <time>2021-06-01T10:05:12Z</time>
      </trkpt>
      <trkpt lat="47.56172" lon="4.30614">
        <ele>370.73</ele>
        <time>2021-06-01T10:05:21Z</time>
      </trkpt>
      <trkpt lat="47.56171" lon="4.30647">
        <ele>367.84</ele>
        <time>2021-06-01T10:05:24Z</time>
      </trkpt>
      <trkpt lat="47.56165" lon="4.30686">
        <ele>364</ele>
        <time>2021-06-01T10:05:28Z</time>
      </trkpt>
      <trkpt lat="47.56151" lon="4.30724">
        <ele>360.63</ele>
        <time>2021-06-01T10:05:33Z</time>
      </trkpt>
      <trkpt lat="47.56151" lon="4.30731">
        <ele>360.15</ele>
        <time>2021-06-01T10:05:34Z</time>
      </trkpt>
      <trkpt lat="47.56152" lon="4.30737">
        <ele>360.15</ele>
        <time>2021-06-01T10:05:35Z</time>
      </trkpt>
      <trkpt lat="47.56154" lon="4.30743">
        <ele>360.15</ele>
        <time>2021-06-01T10:05:36Z</time>
      </trkpt>
      <trkpt lat="47.56157" lon="4.30748">
        <ele>360.15</ele>
        <time>2021-06-01T10:05:37Z</time>
      </trkpt>
      <trkpt lat="47.56159" lon="4.30753">
        <ele>360.63</ele>
        <time>2021-06-01T10:05:38Z</time>
      </trkpt>
      <trkpt lat="47.56161" lon="4.30757">
        <ele>360.63</ele>
        <time>2021-06-01T10:05:39Z</time>
      </trkpt>
      <trkpt lat="47.56177" lon="4.30807">
        <ele>365.92</ele>
        <time>2021-06-01T10:05:53Z</time>
      </trkpt>
      <trkpt lat="47.56204" lon="4.30845">
        <ele>370.24</ele>
        <time>2021-06-01T10:06:10Z</time>
      </trkpt>
      <trkpt lat="47.56219" lon="4.30885">
        <ele>370.24</ele>
        <time>2021-06-01T10:06:25Z</time>
      </trkpt>
      <trkpt lat="47.56208" lon="4.30949">
        <ele>372.17</ele>
        <time>2021-06-01T10:06:46Z</time>
      </trkpt>
      <trkpt lat="47.56194" lon="4.3102">
        <ele>372.65</ele>
        <time>2021-06-01T10:07:06Z</time>
      </trkpt>
      <trkpt lat="47.5618" lon="4.31099">
        <ele>374.09</ele>
        <time>2021-06-01T10:07:26Z</time>
      </trkpt>
      <trkpt lat="47.56196" lon="4.31151">
        <ele>373.61</ele>
        <time>2021-06-01T10:07:37Z</time>
      </trkpt>
      <trkpt lat="47.56231" lon="4.31203">
        <ele>371.69</ele>
        <time>2021-06-01T10:07:48Z</time>
      </trkpt>
      <trkpt lat="47.56236" lon="4.31215">
        <ele>371.69</ele>
        <time>2021-06-01T10:07:50Z</time>
      </trkpt>
      <trkpt lat="47.56251" lon="4.31315">
        <ele>370.73</ele>
        <time>2021-06-01T10:08:02Z</time>
      </trkpt>
      <trkpt lat="47.56252" lon="4.31326">
        <ele>370.24</ele>
        <time>2021-06-01T10:08:03Z</time>
      </trkpt>
      <trkpt lat="47.56255" lon="4.31337">
        <ele>369.76</ele>
        <time>2021-06-01T10:08:04Z</time>
      </trkpt>
      <trkpt lat="47.56258" lon="4.31349">
        <ele>369.28</ele>
        <time>2021-06-01T10:08:05Z</time>
      </trkpt>
      <trkpt lat="47.56272" lon="4.31406">
        <ele>366.88</ele>
        <time>2021-06-01T10:08:10Z</time>
      </trkpt>
      <trkpt lat="47.56274" lon="4.31419">
        <ele>366.4</ele>
        <time>2021-06-01T10:08:11Z</time>
      </trkpt>
      <trkpt lat="47.56279" lon="4.31478">
        <ele>364</ele>
        <time>2021-06-01T10:08:16Z</time>
      </trkpt>
      <trkpt lat="47.56281" lon="4.3149">
        <ele>363.52</ele>
        <time>2021-06-01T10:08:17Z</time>
      </trkpt>
      <trkpt lat="47.56308" lon="4.31588">
        <ele>360.15</ele>
        <time>2021-06-01T10:08:26Z</time>
      </trkpt>
      <trkpt lat="47.56309" lon="4.31599">
        <ele>359.67</ele>
        <time>2021-06-01T10:08:27Z</time>
      </trkpt>
      <trkpt lat="47.56309" lon="4.31609">
        <ele>359.67</ele>
        <time>2021-06-01T10:08:28Z</time>
      </trkpt>
      <trkpt lat="47.56307" lon="4.3162">
        <ele>359.19</ele>
        <time>2021-06-01T10:08:29Z</time>
      </trkpt>
      <trkpt lat="47.56306" lon="4.3163">
        <ele>358.71</ele>
        <time>2021-06-01T10:08:30Z</time>
      </trkpt>
      <trkpt lat="47.56304" lon="4.3164">
        <ele>358.23</ele>
        <time>2021-06-01T10:08:31Z</time>
      </trkpt>
      <trkpt lat="47.56268" lon="4.31782">
        <ele>352.94</ele>
        <time>2021-06-01T10:08:45Z</time>
      </trkpt>
      <trkpt lat="47.56257" lon="4.31827">
        <ele>352.46</ele>
        <time>2021-06-01T10:08:50Z</time>
      </trkpt>
      <trkpt lat="47.56238" lon="4.31954">
        <ele>351.5</ele>
        <time>2021-06-01T10:09:05Z</time>
      </trkpt>
      <trkpt lat="47.56226" lon="4.32046">
        <ele>352.46</ele>
        <time>2021-06-01T10:09:22Z</time>
      </trkpt>
      <trkpt lat="47.56201" lon="4.32106">
        <ele>352.94</ele>
        <time>2021-06-01T10:09:39Z</time>
      </trkpt>
      <trkpt lat="47.56165" lon="4.32154">
        <ele>353.42</ele>
        <time>2021-06-01T10:09:53Z</time>
      </trkpt>
      <trkpt lat="47.56114" lon="4.3221">
        <ele>355.34</ele>
        <time>2021-06-01T10:10:11Z</time>
      </trkpt>
      <trkpt lat="47.56072" lon="4.32249">
        <ele>357.27</ele>
        <time>2021-06-01T10:10:27Z</time>
      </trkpt>
      <trkpt lat="47.56015" lon="4.32296">
        <ele>360.63</ele>
        <time>2021-06-01T10:10:49Z</time>
      </trkpt>
      <trkpt lat="47.55985" lon="4.32282">
        <ele>362.55</ele>
        <time>2021-06-01T10:11:00Z</time>
      </trkpt>
      <trkpt lat="47.55939" lon="4.3225">
        <ele>366.4</ele>
        <time>2021-06-01T10:11:17Z</time>
      </trkpt>
      <trkpt lat="47.55931" lon="4.32252">
        <ele>367.36</ele>
        <time>2021-06-01T10:11:20Z</time>
      </trkpt>
      <trkpt lat="47.55929" lon="4.32254">
        <ele>367.84</ele>
        <time>2021-06-01T10:11:21Z</time>
      </trkpt>
      <trkpt lat="47.55928" lon="4.32256">
        <ele>368.32</ele>
        <time>2021-06-01T10:11:22Z</time>
      </trkpt>
      <trkpt lat="47.55927" lon="4.32258">
        <ele>368.8</ele>
        <time>2021-06-01T10:11:23Z</time>
      </trkpt>
      <trkpt lat="47.55926" lon="4.3226">
        <ele>369.28</ele>
        <time>2021-06-01T10:11:24Z</time>
      </trkpt>
      <trkpt lat="47.55914" lon="4.323">
        <ele>372.17</ele>
        <time>2021-06-01T10:11:38Z</time>
      </trkpt>
      <trkpt lat="47.55902" lon="4.32352">
        <ele>376.97</ele>
        <time>2021-06-01T10:11:51Z</time>
      </trkpt>
      <trkpt lat="47.55888" lon="4.32416">
        <ele>381.78</ele>
        <time>2021-06-01T10:12:05Z</time>
      </trkpt>
      <trkpt lat="47.55866" lon="4.32498">
        <ele>382.26</ele>
        <time>2021-06-01T10:12:21Z</time>
      </trkpt>
      <trkpt lat="47.55857" lon="4.32551">
        <ele>382.74</ele>
        <time>2021-06-01T10:12:30Z</time>
      </trkpt>
      <trkpt lat="47.55856" lon="4.32558">
        <ele>382.74</ele>
        <time>2021-06-01T10:12:31Z</time>
      </trkpt>
      <trkpt lat="47.55826" lon="4.32642">
        <ele>380.82</ele>
        <time>2021-06-01T10:12:46Z</time>
      </trkpt>
      <trkpt lat="47.55776" lon="4.32732">
        <ele>376.97</ele>
        <time>2021-06-01T10:13:02Z</time>
      </trkpt>
      <trkpt lat="47.55732" lon="4.32811">
        <ele>375.53</ele>
        <time>2021-06-01T10:13:16Z</time>
      </trkpt>
      <trkpt lat="47.55723" lon="4.32829">
        <ele>375.53</ele>
        <time>2021-06-01T10:13:19Z</time>
      </trkpt>
      <trkpt lat="47.55717" lon="4.32841">
        <ele>375.53</ele>
        <time>2021-06-01T10:13:21Z</time>
      </trkpt>
      <trkpt lat="47.55713" lon="4.32847">
        <ele>375.05</ele>
        <time>2021-06-01T10:13:22Z</time>
      </trkpt>
      <trkpt lat="47.55708" lon="4.32853">
        <ele>374.57</ele>
        <time>2021-06-01T10:13:23Z</time>
      </trkpt>
      <trkpt lat="47.55703" lon="4.32858">
        <ele>374.09</ele>
        <time>2021-06-01T10:13:24Z</time>
      </trkpt>
      <trkpt lat="47.55698" lon="4.32863">
        <ele>373.13</ele>
        <time>2021-06-01T10:13:25Z</time>
      </trkpt>
      <trkpt lat="47.5567" lon="4.32895">
        <ele>369.28</ele>
        <time>2021-06-01T10:13:31Z</time>
      </trkpt>
      <trkpt lat="47.55665" lon="4.329">
        <ele>368.32</ele>
        <time>2021-06-01T10:13:32Z</time>
      </trkpt>
      <trkpt lat="47.55623" lon="4.32956">
        <ele>367.36</ele>
        <time>2021-06-01T10:13:45Z</time>
      </trkpt>
      <trkpt lat="47.55587" lon="4.3304">
        <ele>359.67</ele>
        <time>2021-06-01T10:13:57Z</time>
      </trkpt>
      <trkpt lat="47.55561" lon="4.33149">
        <ele>347.65</ele>
        <time>2021-06-01T10:14:07Z</time>
      </trkpt>
      <trkpt lat="47.55521" lon="4.33241">
        <ele>336.6</ele>
        <time>2021-06-01T10:14:15Z</time>
      </trkpt>
      <trkpt lat="47.55438" lon="4.33334">
        <ele>326.02</ele>
        <time>2021-06-01T10:14:24Z</time>
      </trkpt>
      <trkpt lat="47.55385" lon="4.33388">
        <ele>323.62</ele>
        <time>2021-06-01T10:14:32Z</time>
      </trkpt>
      <trkpt lat="47.55377" lon="4.33392">
        <ele>323.14</ele>
        <time>2021-06-01T10:14:34Z</time>
      </trkpt>
      <trkpt lat="47.55374" lon="4.33391">
        <ele>323.14</ele>
        <time>2021-06-01T10:14:35Z</time>
      </trkpt>
      <trkpt lat="47.55371" lon="4.33388">
        <ele>323.14</ele>
        <time>2021-06-01T10:14:36Z</time>
      </trkpt>
      <trkpt lat="47.5537" lon="4.33384">
        <ele>323.14</ele>
        <time>2021-06-01T10:14:37Z</time>
      </trkpt>
      <trkpt lat="47.5537" lon="4.3338">
        <ele>323.62</ele>
        <time>2021-06-01T10:14:38Z</time>
      </trkpt>
      <trkpt lat="47.55369" lon="4.33375">
        <ele>323.62</ele>
        <time>2021-06-01T10:14:39Z</time>
      </trkpt>
      <trkpt lat="47.55366" lon="4.33353">
        <ele>324.58</ele>
        <time>2021-06-01T10:14:43Z</time>
      </trkpt>
      <trkpt lat="47.55356" lon="4.33307">
        <ele>324.58</ele>
        <time>2021-06-01T10:14:51Z</time>
      </trkpt>
      <trkpt lat="47.5533" lon="4.33192">
        <ele>319.78</ele>
        <time>2021-06-01T10:15:04Z</time>
      </trkpt>
      <trkpt lat="47.55288" lon="4.33026">
        <ele>311.12</ele>
        <time>2021-06-01T10:15:17Z</time>
      </trkpt>
      <trkpt lat="47.55241" lon="4.32833">
        <ele>298.15</ele>
        <time>2021-06-01T10:15:28Z</time>
      </trkpt>
      <trkpt lat="47.55207" lon="4.32581">
        <ele>282.77</ele>
        <time>2021-06-01T10:15:41Z</time>
      </trkpt>
      <trkpt lat="47.55235" lon="4.3238">
        <ele>273.63</ele>
        <time>2021-06-01T10:15:53Z</time>
      </trkpt>
      <trkpt lat="47.5531" lon="4.32173">
        <ele>265.94</ele>
        <time>2021-06-01T10:16:06Z</time>
      </trkpt>
      <trkpt lat="47.55373" lon="4.31946">
        <ele>262.1</ele>
        <time>2021-06-01T10:16:20Z</time>
      </trkpt>
      <trkpt lat="47.55452" lon="4.31712">
        <ele>258.25</ele>
        <time>2021-06-01T10:16:36Z</time>
      </trkpt>
      <trkpt lat="47.55501" lon="4.31608">
        <ele>259.21</ele>
        <time>2021-06-01T10:16:46Z</time>
      </trkpt>
      <trkpt lat="47.55527" lon="4.3153">
        <ele>261.14</ele>
        <time>2021-06-01T10:16:54Z</time>
      </trkpt>
      <trkpt lat="47.55529" lon="4.31425">
        <ele>261.14</ele>
        <time>2021-06-01T10:17:04Z</time>
      </trkpt>
      <trkpt lat="47.55522" lon="4.3129">
        <ele>258.25</ele>
        <time>2021-06-01T10:17:17Z</time>
      </trkpt>
      <trkpt lat="47.55507" lon="4.31119">
        <ele>254.41</ele>
        <time>2021-06-01T10:17:31Z</time>
      </trkpt>
      <trkpt lat="47.55493" lon="4.30981">
        <ele>251.52</ele>
        <time>2021-06-01T10:17:42Z</time>
      </trkpt>
      <trkpt lat="47.55492" lon="4.3097">
        <ele>251.04</ele>
        <time>2021-06-01T10:17:43Z</time>
      </trkpt>
      <trkpt lat="47.55491" lon="4.3096">
        <ele>251.04</ele>
        <time>2021-06-01T10:17:44Z</time>
      </trkpt>
      <trkpt lat="47.55488" lon="4.30951">
        <ele>251.04</ele>
        <time>2021-06-01T10:17:45Z</time>
      </trkpt>
      <trkpt lat="47.55485" lon="4.30945">
        <ele>250.56</ele>
        <time>2021-06-01T10:17:46Z</time>
      </trkpt>
      <trkpt lat="47.55481" lon="4.3094">
        <ele>250.56</ele>
        <time>2021-06-01T10:17:47Z</time>
      </trkpt>
      <trkpt lat="47.55477" lon="4.30937">
        <ele>250.08</ele>
        <time>2021-06-01T10:17:48Z</time>
      </trkpt>
      <trkpt lat="47.55472" lon="4.30936">
        <ele>250.56</ele>
        <time>2021-06-01T10:17:49Z</time>
      </trkpt>
      <trkpt lat="47.55466" lon="4.30935">
        <ele>250.56</ele>
        <time>2021-06-01T10:17:50Z</time>
      </trkpt>
      <trkpt lat="47.55455" lon="4.30932">
        <ele>250.56</ele>
        <time>2021-06-01T10:17:52Z</time>
      </trkpt>
      <trkpt lat="47.55449" lon="4.30929">
        <ele>251.04</ele>
        <time>2021-06-01T10:17:53Z</time>
      </trkpt>
      <trkpt lat="47.55444" lon="4.30924">
        <ele>251.04</ele>
        <time>2021-06-01T10:17:54Z</time>
      </trkpt>
      <trkpt lat="47.55441" lon="4.30919">
        <ele>251.52</ele>
        <time>2021-06-01T10:17:55Z</time>
      </trkpt>
      <trkpt lat="47.55438" lon="4.30914">
        <ele>251.52</ele>
        <time>2021-06-01T10:17:56Z</time>
      </trkpt>
      <trkpt lat="47.55436" lon="4.3091">
        <ele>251.52</ele>
        <time>2021-06-01T10:17:57Z</time>
      </trkpt>
      <trkpt lat="47.55432" lon="4.30898">
        <ele>250.56</ele>
        <time>2021-06-01T10:18:06Z</time>
      </trkpt>
      <trkpt lat="47.55434" lon="4.30898">
        <ele>250.08</ele>
        <time>2021-06-01T10:18:14Z</time>
      </trkpt>
      <trkpt lat="47.55436" lon="4.30904">
        <ele>250.08</ele>
        <time>2021-06-01T10:18:20Z</time>
      </trkpt>
      <trkpt lat="47.5544" lon="4.30907">
        <ele>250.08</ele>
        <time>2021-06-01T10:18:29Z</time>
      </trkpt>
      <trkpt lat="47.55444" lon="4.30909">
        <ele>249.6</ele>
        <time>2021-06-01T10:18:43Z</time>
      </trkpt>
    </trkseg>
  </trk>
</gpx>